<?xml version="1.0" encoding="UTF-8" standalone="no" ?>
<gpx xmlns="http://www.topografix.com/GPX/1/1" creator="CompeGPS" version="1.1" xmlns:xsi="http://www.w3.org/2001/XMLSchema-instance" xsi:schemaLocation="http://www.topografix.com/GPX/1/1 http://www.topografix.com/GPX/1/1/gpx.xsd http://www.garmin.com/xmlschemas/GpxExtensions/v3 http://www.garmin.com/xmlschemas/GpxExtensionsv3.xsd http://www.garmin.com/xmlschemas/TrackPointExtension/v1 http://www.garmin.com/xmlschemas/TrackPointExtensionv1.xsd" xmlns:gpxtpx="http://www.garmin.com/xmlschemas/TrackPointExtension/v1">
  <metadata>
    <link href="http://www.compegps.com">
      <text>CompeGPS TEAM, SL</text>
    </link>
    <time>2019-01-20T15:20:56Z</time>
    <bounds maxlat="42.805732" maxlon="1.423518" minlat="42.781347" minlon="1.393253"/>
  </metadata>
<wpt lat="42.805610" lon="1.423495">
  <ele>1376</ele>
  <name>Route du Port de Lers</name>
</wpt>
<wpt lat="42.802522" lon="1.406411">
  <ele>1650</ele>
  <name>Col des Coumettes</name>
</wpt>
<wpt lat="42.798637" lon="1.401455">
  <ele>1650</ele>
  <name>Col sans nom</name>
</wpt>
<wpt lat="42.786758" lon="1.393643">
  <ele>1593</ele>
  <name>Pas de la Portere</name>
</wpt>
<wpt lat="42.781347" lon="1.404346">
  <ele>1794</ele>
  <name>Port de Saleix</name>
</wpt>
<wpt lat="42.790101" lon="1.406632">
  <ele>2088</ele>
  <name>Pic de girantes</name>
</wpt>
<trk>
    <name>pic_girantes</name>
    <userMyTwoNav></userMyTwoNav>
    <serialNumber></serialNumber>
    <trkseg>
      <trkpt lat="42.805610" lon="1.423495">
        <ele>1411.4</ele>
        <time>2019-01-19T08:39:35Z</time>
        <name>Route du Port de Lers</name>
      </trkpt>
      <trkpt lat="42.805633" lon="1.423369">
        <ele>1373.7</ele>
        <time>2019-01-19T08:39:48Z</time>
      </trkpt>
      <trkpt lat="42.805637" lon="1.423229">
        <ele>1367.3</ele>
        <time>2019-01-19T08:40:00Z</time>
      </trkpt>
      <trkpt lat="42.805644" lon="1.423086">
        <ele>1368.1</ele>
        <time>2019-01-19T08:40:12Z</time>
      </trkpt>
      <trkpt lat="42.805638" lon="1.422937">
        <ele>1369.2</ele>
        <time>2019-01-19T08:40:28Z</time>
      </trkpt>
      <trkpt lat="42.805632" lon="1.422809">
        <ele>1370.2</ele>
        <time>2019-01-19T08:40:41Z</time>
      </trkpt>
      <trkpt lat="42.805621" lon="1.422684">
        <ele>1371.2</ele>
        <time>2019-01-19T08:40:55Z</time>
      </trkpt>
      <trkpt lat="42.805574" lon="1.422570">
        <ele>1371.7</ele>
        <time>2019-01-19T08:41:03Z</time>
      </trkpt>
      <trkpt lat="42.805536" lon="1.422460">
        <ele>1372.8</ele>
        <time>2019-01-19T08:41:12Z</time>
      </trkpt>
      <trkpt lat="42.805543" lon="1.422330">
        <ele>1374.2</ele>
        <time>2019-01-19T08:41:27Z</time>
      </trkpt>
      <trkpt lat="42.805562" lon="1.422176">
        <ele>1375.0</ele>
        <time>2019-01-19T08:41:41Z</time>
      </trkpt>
      <trkpt lat="42.805567" lon="1.422027">
        <ele>1377.3</ele>
        <time>2019-01-19T08:41:52Z</time>
      </trkpt>
      <trkpt lat="42.805573" lon="1.421891">
        <ele>1377.9</ele>
        <time>2019-01-19T08:42:03Z</time>
      </trkpt>
      <trkpt lat="42.805581" lon="1.421755">
        <ele>1378.9</ele>
        <time>2019-01-19T08:42:14Z</time>
      </trkpt>
      <trkpt lat="42.805592" lon="1.421620">
        <ele>1380.1</ele>
        <time>2019-01-19T08:42:26Z</time>
      </trkpt>
      <trkpt lat="42.805595" lon="1.421491">
        <ele>1381.1</ele>
        <time>2019-01-19T08:42:37Z</time>
      </trkpt>
      <trkpt lat="42.805602" lon="1.421362">
        <ele>1382.0</ele>
        <time>2019-01-19T08:42:47Z</time>
      </trkpt>
      <trkpt lat="42.805616" lon="1.421231">
        <ele>1382.9</ele>
        <time>2019-01-19T08:42:57Z</time>
      </trkpt>
      <trkpt lat="42.805624" lon="1.421097">
        <ele>1384.0</ele>
        <time>2019-01-19T08:43:08Z</time>
      </trkpt>
      <trkpt lat="42.805628" lon="1.420971">
        <ele>1384.9</ele>
        <time>2019-01-19T08:43:18Z</time>
      </trkpt>
      <trkpt lat="42.805619" lon="1.420836">
        <ele>1386.0</ele>
        <time>2019-01-19T08:43:28Z</time>
      </trkpt>
      <trkpt lat="42.805617" lon="1.420717">
        <ele>1387.1</ele>
        <time>2019-01-19T08:43:39Z</time>
      </trkpt>
      <trkpt lat="42.805602" lon="1.420586">
        <ele>1387.9</ele>
        <time>2019-01-19T08:43:49Z</time>
      </trkpt>
      <trkpt lat="42.805592" lon="1.420442">
        <ele>1389.0</ele>
        <time>2019-01-19T08:44:00Z</time>
      </trkpt>
      <trkpt lat="42.805613" lon="1.420324">
        <ele>1389.9</ele>
        <time>2019-01-19T08:44:09Z</time>
      </trkpt>
      <trkpt lat="42.805666" lon="1.420224">
        <ele>1390.9</ele>
        <time>2019-01-19T08:44:18Z</time>
      </trkpt>
      <trkpt lat="42.805724" lon="1.420127">
        <ele>1391.2</ele>
        <time>2019-01-19T08:44:27Z</time>
      </trkpt>
      <trkpt lat="42.805732" lon="1.420022">
        <ele>1392.3</ele>
        <time>2019-01-19T08:44:45Z</time>
      </trkpt>
      <trkpt lat="42.805694" lon="1.419908">
        <ele>1394.9</ele>
        <time>2019-01-19T08:45:02Z</time>
      </trkpt>
      <trkpt lat="42.805636" lon="1.419825">
        <ele>1396.8</ele>
        <time>2019-01-19T08:45:16Z</time>
      </trkpt>
      <trkpt lat="42.805591" lon="1.419710">
        <ele>1398.9</ele>
        <time>2019-01-19T08:45:30Z</time>
      </trkpt>
      <trkpt lat="42.805566" lon="1.419583">
        <ele>1400.6</ele>
        <time>2019-01-19T08:45:42Z</time>
      </trkpt>
      <trkpt lat="42.805555" lon="1.419441">
        <ele>1402.2</ele>
        <time>2019-01-19T08:45:56Z</time>
      </trkpt>
      <trkpt lat="42.805530" lon="1.419306">
        <ele>1403.3</ele>
        <time>2019-01-19T08:46:08Z</time>
      </trkpt>
      <trkpt lat="42.805482" lon="1.419192">
        <ele>1404.4</ele>
        <time>2019-01-19T08:46:21Z</time>
      </trkpt>
      <trkpt lat="42.805448" lon="1.419059">
        <ele>1405.1</ele>
        <time>2019-01-19T08:46:33Z</time>
      </trkpt>
      <trkpt lat="42.805445" lon="1.418925">
        <ele>1406.2</ele>
        <time>2019-01-19T08:46:44Z</time>
      </trkpt>
      <trkpt lat="42.805413" lon="1.418795">
        <ele>1406.4</ele>
        <time>2019-01-19T08:46:55Z</time>
      </trkpt>
      <trkpt lat="42.805357" lon="1.418693">
        <ele>1405.8</ele>
        <time>2019-01-19T08:47:06Z</time>
      </trkpt>
      <trkpt lat="42.805316" lon="1.418570">
        <ele>1405.8</ele>
        <time>2019-01-19T08:47:15Z</time>
      </trkpt>
      <trkpt lat="42.805294" lon="1.418435">
        <ele>1406.3</ele>
        <time>2019-01-19T08:47:28Z</time>
      </trkpt>
      <trkpt lat="42.805261" lon="1.418310">
        <ele>1407.7</ele>
        <time>2019-01-19T08:47:42Z</time>
      </trkpt>
      <trkpt lat="42.805207" lon="1.418210">
        <ele>1409.2</ele>
        <time>2019-01-19T08:47:55Z</time>
      </trkpt>
      <trkpt lat="42.805152" lon="1.418091">
        <ele>1410.3</ele>
        <time>2019-01-19T08:48:07Z</time>
      </trkpt>
      <trkpt lat="42.805121" lon="1.417956">
        <ele>1411.1</ele>
        <time>2019-01-19T08:48:19Z</time>
      </trkpt>
      <trkpt lat="42.805089" lon="1.417819">
        <ele>1413.0</ele>
        <time>2019-01-19T08:48:34Z</time>
      </trkpt>
      <trkpt lat="42.805055" lon="1.417695">
        <ele>1414.5</ele>
        <time>2019-01-19T08:48:47Z</time>
      </trkpt>
      <trkpt lat="42.805046" lon="1.417564">
        <ele>1415.7</ele>
        <time>2019-01-19T08:49:00Z</time>
      </trkpt>
      <trkpt lat="42.805057" lon="1.417429">
        <ele>1417.0</ele>
        <time>2019-01-19T08:49:14Z</time>
      </trkpt>
      <trkpt lat="42.805023" lon="1.417297">
        <ele>1418.0</ele>
        <time>2019-01-19T08:49:28Z</time>
      </trkpt>
      <trkpt lat="42.805025" lon="1.417170">
        <ele>1418.8</ele>
        <time>2019-01-19T08:49:39Z</time>
      </trkpt>
      <trkpt lat="42.805007" lon="1.417048">
        <ele>1419.3</ele>
        <time>2019-01-19T08:49:50Z</time>
      </trkpt>
      <trkpt lat="42.805001" lon="1.416923">
        <ele>1421.0</ele>
        <time>2019-01-19T08:50:04Z</time>
      </trkpt>
      <trkpt lat="42.805011" lon="1.416807">
        <ele>1423.9</ele>
        <time>2019-01-19T08:50:21Z</time>
      </trkpt>
      <trkpt lat="42.805004" lon="1.416676">
        <ele>1426.2</ele>
        <time>2019-01-19T08:50:38Z</time>
      </trkpt>
      <trkpt lat="42.805002" lon="1.416536">
        <ele>1427.8</ele>
        <time>2019-01-19T08:50:52Z</time>
      </trkpt>
      <trkpt lat="42.805014" lon="1.416431">
        <ele>1429.8</ele>
        <time>2019-01-19T08:51:14Z</time>
      </trkpt>
      <trkpt lat="42.805033" lon="1.416419">
        <ele>1429.8</ele>
        <time>2019-01-19T08:53:38Z</time>
      </trkpt>
      <trkpt lat="42.805043" lon="1.416433">
        <ele>1430.3</ele>
        <time>2019-01-19T08:56:41Z</time>
      </trkpt>
      <trkpt lat="42.805066" lon="1.416300">
        <ele>1431.7</ele>
        <time>2019-01-19T08:57:19Z</time>
      </trkpt>
      <trkpt lat="42.805036" lon="1.416184">
        <ele>1433.0</ele>
        <time>2019-01-19T08:57:33Z</time>
      </trkpt>
      <trkpt lat="42.804994" lon="1.416069">
        <ele>1432.8</ele>
        <time>2019-01-19T08:57:47Z</time>
      </trkpt>
      <trkpt lat="42.805012" lon="1.415919">
        <ele>1434.5</ele>
        <time>2019-01-19T08:58:04Z</time>
      </trkpt>
      <trkpt lat="42.805034" lon="1.415767">
        <ele>1436.3</ele>
        <time>2019-01-19T08:58:21Z</time>
      </trkpt>
      <trkpt lat="42.805080" lon="1.415663">
        <ele>1438.8</ele>
        <time>2019-01-19T08:58:39Z</time>
      </trkpt>
      <trkpt lat="42.805129" lon="1.415564">
        <ele>1441.7</ele>
        <time>2019-01-19T08:58:58Z</time>
      </trkpt>
      <trkpt lat="42.805196" lon="1.415471">
        <ele>1443.9</ele>
        <time>2019-01-19T08:59:16Z</time>
      </trkpt>
      <trkpt lat="42.805184" lon="1.415346">
        <ele>1445.9</ele>
        <time>2019-01-19T08:59:30Z</time>
      </trkpt>
      <trkpt lat="42.805138" lon="1.415234">
        <ele>1447.1</ele>
        <time>2019-01-19T08:59:43Z</time>
      </trkpt>
      <trkpt lat="42.805094" lon="1.415112">
        <ele>1448.4</ele>
        <time>2019-01-19T08:59:56Z</time>
      </trkpt>
      <trkpt lat="42.805041" lon="1.415008">
        <ele>1449.6</ele>
        <time>2019-01-19T09:00:08Z</time>
      </trkpt>
      <trkpt lat="42.804989" lon="1.414902">
        <ele>1450.2</ele>
        <time>2019-01-19T09:00:20Z</time>
      </trkpt>
      <trkpt lat="42.804916" lon="1.414810">
        <ele>1451.4</ele>
        <time>2019-01-19T09:00:34Z</time>
      </trkpt>
      <trkpt lat="42.804848" lon="1.414708">
        <ele>1452.6</ele>
        <time>2019-01-19T09:00:47Z</time>
      </trkpt>
      <trkpt lat="42.804783" lon="1.414592">
        <ele>1454.1</ele>
        <time>2019-01-19T09:01:20Z</time>
      </trkpt>
      <trkpt lat="42.804720" lon="1.414498">
        <ele>1454.9</ele>
        <time>2019-01-19T09:01:32Z</time>
      </trkpt>
      <trkpt lat="42.804696" lon="1.414388">
        <ele>1456.1</ele>
        <time>2019-01-19T09:01:43Z</time>
      </trkpt>
      <trkpt lat="42.804650" lon="1.414267">
        <ele>1457.0</ele>
        <time>2019-01-19T09:01:54Z</time>
      </trkpt>
      <trkpt lat="42.804613" lon="1.414138">
        <ele>1458.0</ele>
        <time>2019-01-19T09:02:06Z</time>
      </trkpt>
      <trkpt lat="42.804582" lon="1.414013">
        <ele>1459.2</ele>
        <time>2019-01-19T09:02:18Z</time>
      </trkpt>
      <trkpt lat="42.804542" lon="1.413893">
        <ele>1460.2</ele>
        <time>2019-01-19T09:02:28Z</time>
      </trkpt>
      <trkpt lat="42.804491" lon="1.413767">
        <ele>1461.5</ele>
        <time>2019-01-19T09:02:39Z</time>
      </trkpt>
      <trkpt lat="42.804425" lon="1.413656">
        <ele>1462.6</ele>
        <time>2019-01-19T09:02:50Z</time>
      </trkpt>
      <trkpt lat="42.804348" lon="1.413561">
        <ele>1463.8</ele>
        <time>2019-01-19T09:03:02Z</time>
      </trkpt>
      <trkpt lat="42.804276" lon="1.413480">
        <ele>1465.1</ele>
        <time>2019-01-19T09:03:14Z</time>
      </trkpt>
      <trkpt lat="42.804203" lon="1.413364">
        <ele>1466.2</ele>
        <time>2019-01-19T09:03:26Z</time>
      </trkpt>
      <trkpt lat="42.804125" lon="1.413263">
        <ele>1467.2</ele>
        <time>2019-01-19T09:03:37Z</time>
      </trkpt>
      <trkpt lat="42.804054" lon="1.413176">
        <ele>1468.1</ele>
        <time>2019-01-19T09:03:47Z</time>
      </trkpt>
      <trkpt lat="42.803979" lon="1.413091">
        <ele>1469.3</ele>
        <time>2019-01-19T09:03:59Z</time>
      </trkpt>
      <trkpt lat="42.803895" lon="1.413001">
        <ele>1470.5</ele>
        <time>2019-01-19T09:04:11Z</time>
      </trkpt>
      <trkpt lat="42.803813" lon="1.412923">
        <ele>1471.1</ele>
        <time>2019-01-19T09:04:21Z</time>
      </trkpt>
      <trkpt lat="42.803760" lon="1.412849">
        <ele>1471.7</ele>
        <time>2019-01-19T09:04:33Z</time>
      </trkpt>
      <trkpt lat="42.803695" lon="1.412760">
        <ele>1473.4</ele>
        <time>2019-01-19T09:04:47Z</time>
      </trkpt>
      <trkpt lat="42.803603" lon="1.412687">
        <ele>1475.3</ele>
        <time>2019-01-19T09:05:12Z</time>
      </trkpt>
      <trkpt lat="42.803564" lon="1.412590">
        <ele>1478.7</ele>
        <time>2019-01-19T09:05:34Z</time>
      </trkpt>
      <trkpt lat="42.803556" lon="1.412459">
        <ele>1483.2</ele>
        <time>2019-01-19T09:06:02Z</time>
      </trkpt>
      <trkpt lat="42.803588" lon="1.412347">
        <ele>1486.2</ele>
        <time>2019-01-19T09:07:49Z</time>
      </trkpt>
      <trkpt lat="42.803593" lon="1.412204">
        <ele>1489.2</ele>
        <time>2019-01-19T09:08:11Z</time>
      </trkpt>
      <trkpt lat="42.803569" lon="1.412085">
        <ele>1492.6</ele>
        <time>2019-01-19T09:08:34Z</time>
      </trkpt>
      <trkpt lat="42.803608" lon="1.411973">
        <ele>1497.1</ele>
        <time>2019-01-19T09:08:59Z</time>
      </trkpt>
      <trkpt lat="42.803625" lon="1.411851">
        <ele>1499.1</ele>
        <time>2019-01-19T09:09:19Z</time>
      </trkpt>
      <trkpt lat="42.803639" lon="1.411732">
        <ele>1502.1</ele>
        <time>2019-01-19T09:09:42Z</time>
      </trkpt>
      <trkpt lat="42.803641" lon="1.411607">
        <ele>1504.3</ele>
        <time>2019-01-19T09:10:01Z</time>
      </trkpt>
      <trkpt lat="42.803633" lon="1.411479">
        <ele>1505.9</ele>
        <time>2019-01-19T09:10:17Z</time>
      </trkpt>
      <trkpt lat="42.803665" lon="1.411361">
        <ele>1507.0</ele>
        <time>2019-01-19T09:10:31Z</time>
      </trkpt>
      <trkpt lat="42.803696" lon="1.411239">
        <ele>1508.4</ele>
        <time>2019-01-19T09:11:09Z</time>
      </trkpt>
      <trkpt lat="42.803708" lon="1.411146">
        <ele>1508.2</ele>
        <time>2019-01-19T09:11:27Z</time>
      </trkpt>
      <trkpt lat="42.803700" lon="1.411022">
        <ele>1508.6</ele>
        <time>2019-01-19T09:11:49Z</time>
      </trkpt>
      <trkpt lat="42.803691" lon="1.410899">
        <ele>1510.2</ele>
        <time>2019-01-19T09:12:05Z</time>
      </trkpt>
      <trkpt lat="42.803679" lon="1.410774">
        <ele>1514.4</ele>
        <time>2019-01-19T09:12:26Z</time>
      </trkpt>
      <trkpt lat="42.803592" lon="1.410790">
        <ele>1517.8</ele>
        <time>2019-01-19T09:12:49Z</time>
      </trkpt>
      <trkpt lat="42.803504" lon="1.410812">
        <ele>1520.6</ele>
        <time>2019-01-19T09:13:12Z</time>
      </trkpt>
      <trkpt lat="42.803413" lon="1.410850">
        <ele>1524.8</ele>
        <time>2019-01-19T09:13:38Z</time>
      </trkpt>
      <trkpt lat="42.803319" lon="1.410864">
        <ele>1528.2</ele>
        <time>2019-01-19T09:14:02Z</time>
      </trkpt>
      <trkpt lat="42.803229" lon="1.410828">
        <ele>1532.5</ele>
        <time>2019-01-19T09:14:27Z</time>
      </trkpt>
      <trkpt lat="42.803185" lon="1.410730">
        <ele>1536.4</ele>
        <time>2019-01-19T09:14:52Z</time>
      </trkpt>
      <trkpt lat="42.803165" lon="1.410723">
        <ele>1538.2</ele>
        <time>2019-01-19T09:15:46Z</time>
      </trkpt>
      <trkpt lat="42.803106" lon="1.410671">
        <ele>1541.1</ele>
        <time>2019-01-19T09:16:25Z</time>
      </trkpt>
      <trkpt lat="42.803061" lon="1.410543">
        <ele>1542.5</ele>
        <time>2019-01-19T09:16:40Z</time>
      </trkpt>
      <trkpt lat="42.802977" lon="1.410445">
        <ele>1543.6</ele>
        <time>2019-01-19T09:17:43Z</time>
      </trkpt>
      <trkpt lat="42.802809" lon="1.410275">
        <ele>1547.2</ele>
        <time>2019-01-19T09:18:57Z</time>
      </trkpt>
      <trkpt lat="42.802743" lon="1.410224">
        <ele>1550.2</ele>
        <time>2019-01-19T09:19:20Z</time>
      </trkpt>
      <trkpt lat="42.802666" lon="1.410140">
        <ele>1552.7</ele>
        <time>2019-01-19T09:19:38Z</time>
      </trkpt>
      <trkpt lat="42.802573" lon="1.410115">
        <ele>1554.9</ele>
        <time>2019-01-19T09:19:55Z</time>
      </trkpt>
      <trkpt lat="42.802496" lon="1.410044">
        <ele>1556.8</ele>
        <time>2019-01-19T09:20:13Z</time>
      </trkpt>
      <trkpt lat="42.802420" lon="1.409958">
        <ele>1558.6</ele>
        <time>2019-01-19T09:20:33Z</time>
      </trkpt>
      <trkpt lat="42.802320" lon="1.409935">
        <ele>1560.5</ele>
        <time>2019-01-19T09:20:51Z</time>
      </trkpt>
      <trkpt lat="42.802231" lon="1.409858">
        <ele>1561.9</ele>
        <time>2019-01-19T09:21:06Z</time>
      </trkpt>
      <trkpt lat="42.802164" lon="1.409745">
        <ele>1563.2</ele>
        <time>2019-01-19T09:21:22Z</time>
      </trkpt>
      <trkpt lat="42.802121" lon="1.409648">
        <ele>1564.6</ele>
        <time>2019-01-19T09:21:58Z</time>
      </trkpt>
      <trkpt lat="42.802112" lon="1.409495">
        <ele>1565.5</ele>
        <time>2019-01-19T09:22:19Z</time>
      </trkpt>
      <trkpt lat="42.802098" lon="1.409347">
        <ele>1567.6</ele>
        <time>2019-01-19T09:22:38Z</time>
      </trkpt>
      <trkpt lat="42.802082" lon="1.409205">
        <ele>1569.7</ele>
        <time>2019-01-19T09:22:57Z</time>
      </trkpt>
      <trkpt lat="42.802071" lon="1.409080">
        <ele>1571.0</ele>
        <time>2019-01-19T09:23:16Z</time>
      </trkpt>
      <trkpt lat="42.802029" lon="1.408981">
        <ele>1573.7</ele>
        <time>2019-01-19T09:23:39Z</time>
      </trkpt>
      <trkpt lat="42.801964" lon="1.408890">
        <ele>1576.9</ele>
        <time>2019-01-19T09:23:59Z</time>
      </trkpt>
      <trkpt lat="42.801945" lon="1.408752">
        <ele>1580.1</ele>
        <time>2019-01-19T09:24:20Z</time>
      </trkpt>
      <trkpt lat="42.801867" lon="1.408666">
        <ele>1583.5</ele>
        <time>2019-01-19T09:24:45Z</time>
      </trkpt>
      <trkpt lat="42.801796" lon="1.408603">
        <ele>1586.0</ele>
        <time>2019-01-19T09:25:10Z</time>
      </trkpt>
      <trkpt lat="42.801739" lon="1.408508">
        <ele>1588.5</ele>
        <time>2019-01-19T09:25:30Z</time>
      </trkpt>
      <trkpt lat="42.801734" lon="1.408379">
        <ele>1591.0</ele>
        <time>2019-01-19T09:26:06Z</time>
      </trkpt>
      <trkpt lat="42.801707" lon="1.408267">
        <ele>1591.3</ele>
        <time>2019-01-19T09:26:20Z</time>
      </trkpt>
      <trkpt lat="42.801684" lon="1.408155">
        <ele>1592.8</ele>
        <time>2019-01-19T09:26:41Z</time>
      </trkpt>
      <trkpt lat="42.801948" lon="1.407880">
        <ele>1598.7</ele>
        <time>2019-01-19T09:28:51Z</time>
      </trkpt>
      <trkpt lat="42.802048" lon="1.407841">
        <ele>1598.2</ele>
        <time>2019-01-19T09:29:07Z</time>
      </trkpt>
      <trkpt lat="42.802168" lon="1.407817">
        <ele>1600.3</ele>
        <time>2019-01-19T09:29:30Z</time>
      </trkpt>
      <trkpt lat="42.802256" lon="1.407734">
        <ele>1602.2</ele>
        <time>2019-01-19T09:29:50Z</time>
      </trkpt>
      <trkpt lat="42.802322" lon="1.407581">
        <ele>1603.2</ele>
        <time>2019-01-19T09:30:06Z</time>
      </trkpt>
      <trkpt lat="42.802401" lon="1.407537">
        <ele>1607.2</ele>
        <time>2019-01-19T09:30:33Z</time>
      </trkpt>
      <trkpt lat="42.802465" lon="1.407492">
        <ele>1610.6</ele>
        <time>2019-01-19T09:30:55Z</time>
      </trkpt>
      <trkpt lat="42.802562" lon="1.407419">
        <ele>1616.5</ele>
        <time>2019-01-19T09:31:40Z</time>
      </trkpt>
      <trkpt lat="42.802620" lon="1.407313">
        <ele>1620.0</ele>
        <time>2019-01-19T09:32:17Z</time>
      </trkpt>
      <trkpt lat="42.802580" lon="1.407203">
        <ele>1621.9</ele>
        <time>2019-01-19T09:32:38Z</time>
      </trkpt>
      <trkpt lat="42.802535" lon="1.407080">
        <ele>1624.6</ele>
        <time>2019-01-19T09:32:58Z</time>
      </trkpt>
      <trkpt lat="42.802514" lon="1.406955">
        <ele>1626.9</ele>
        <time>2019-01-19T09:33:20Z</time>
      </trkpt>
      <trkpt lat="42.802560" lon="1.406815">
        <ele>1629.7</ele>
        <time>2019-01-19T09:33:38Z</time>
      </trkpt>
      <trkpt lat="42.802529" lon="1.406698">
        <ele>1630.5</ele>
        <time>2019-01-19T09:33:50Z</time>
      </trkpt>
      <trkpt lat="42.802499" lon="1.406564">
        <ele>1633.2</ele>
        <time>2019-01-19T09:34:08Z</time>
      </trkpt>
      <trkpt lat="42.802522" lon="1.406411">
        <ele>1635.6</ele>
        <time>2019-01-19T09:34:26Z</time>
        <name>Col des Coumettes</name>
      </trkpt>
      <trkpt lat="42.802535" lon="1.406308">
        <ele>1636.5</ele>
        <time>2019-01-19T09:39:41Z</time>
      </trkpt>
      <trkpt lat="42.802560" lon="1.406179">
        <ele>1638.1</ele>
        <time>2019-01-19T09:39:55Z</time>
      </trkpt>
      <trkpt lat="42.802593" lon="1.406040">
        <ele>1639.2</ele>
        <time>2019-01-19T09:40:08Z</time>
      </trkpt>
      <trkpt lat="42.802576" lon="1.405920">
        <ele>1639.4</ele>
        <time>2019-01-19T09:40:19Z</time>
      </trkpt>
      <trkpt lat="42.802514" lon="1.405833">
        <ele>1638.3</ele>
        <time>2019-01-19T09:40:28Z</time>
      </trkpt>
      <trkpt lat="42.802446" lon="1.405752">
        <ele>1637.8</ele>
        <time>2019-01-19T09:40:40Z</time>
      </trkpt>
      <trkpt lat="42.802410" lon="1.405639">
        <ele>1638.7</ele>
        <time>2019-01-19T09:40:53Z</time>
      </trkpt>
      <trkpt lat="42.802362" lon="1.405524">
        <ele>1642.0</ele>
        <time>2019-01-19T09:41:16Z</time>
      </trkpt>
      <trkpt lat="42.802342" lon="1.405394">
        <ele>1645.3</ele>
        <time>2019-01-19T09:41:36Z</time>
      </trkpt>
      <trkpt lat="42.802300" lon="1.405262">
        <ele>1646.3</ele>
        <time>2019-01-19T09:41:49Z</time>
      </trkpt>
      <trkpt lat="42.802267" lon="1.405148">
        <ele>1645.4</ele>
        <time>2019-01-19T09:42:05Z</time>
      </trkpt>
      <trkpt lat="42.802205" lon="1.405053">
        <ele>1646.5</ele>
        <time>2019-01-19T09:42:19Z</time>
      </trkpt>
      <trkpt lat="42.802162" lon="1.404938">
        <ele>1646.1</ele>
        <time>2019-01-19T09:42:29Z</time>
      </trkpt>
      <trkpt lat="42.802101" lon="1.404823">
        <ele>1646.1</ele>
        <time>2019-01-19T09:42:41Z</time>
      </trkpt>
      <trkpt lat="42.802062" lon="1.404698">
        <ele>1646.1</ele>
        <time>2019-01-19T09:42:54Z</time>
      </trkpt>
      <trkpt lat="42.802033" lon="1.404568">
        <ele>1646.9</ele>
        <time>2019-01-19T09:43:06Z</time>
      </trkpt>
      <trkpt lat="42.802050" lon="1.404444">
        <ele>1647.7</ele>
        <time>2019-01-19T09:43:18Z</time>
      </trkpt>
      <trkpt lat="42.802070" lon="1.404326">
        <ele>1649.2</ele>
        <time>2019-01-19T09:43:33Z</time>
      </trkpt>
      <trkpt lat="42.802059" lon="1.404213">
        <ele>1652.2</ele>
        <time>2019-01-19T09:43:57Z</time>
      </trkpt>
      <trkpt lat="42.801970" lon="1.404203">
        <ele>1655.7</ele>
        <time>2019-01-19T09:44:19Z</time>
      </trkpt>
      <trkpt lat="42.801889" lon="1.404144">
        <ele>1658.0</ele>
        <time>2019-01-19T09:44:37Z</time>
      </trkpt>
      <trkpt lat="42.801818" lon="1.404050">
        <ele>1660.9</ele>
        <time>2019-01-19T09:44:58Z</time>
      </trkpt>
      <trkpt lat="42.801742" lon="1.403990">
        <ele>1662.7</ele>
        <time>2019-01-19T09:45:35Z</time>
      </trkpt>
      <trkpt lat="42.801656" lon="1.403930">
        <ele>1664.4</ele>
        <time>2019-01-19T09:45:53Z</time>
      </trkpt>
      <trkpt lat="42.801583" lon="1.403858">
        <ele>1666.4</ele>
        <time>2019-01-19T09:46:11Z</time>
      </trkpt>
      <trkpt lat="42.801504" lon="1.403776">
        <ele>1668.7</ele>
        <time>2019-01-19T09:46:32Z</time>
      </trkpt>
      <trkpt lat="42.801439" lon="1.403684">
        <ele>1670.3</ele>
        <time>2019-01-19T09:46:50Z</time>
      </trkpt>
      <trkpt lat="42.801359" lon="1.403628">
        <ele>1672.3</ele>
        <time>2019-01-19T09:47:08Z</time>
      </trkpt>
      <trkpt lat="42.801281" lon="1.403564">
        <ele>1674.5</ele>
        <time>2019-01-19T09:47:28Z</time>
      </trkpt>
      <trkpt lat="42.801199" lon="1.403621">
        <ele>1677.3</ele>
        <time>2019-01-19T09:47:49Z</time>
      </trkpt>
      <trkpt lat="42.801141" lon="1.403654">
        <ele>1680.3</ele>
        <time>2019-01-19T09:56:05Z</time>
      </trkpt>
      <trkpt lat="42.801069" lon="1.403626">
        <ele>1681.4</ele>
        <time>2019-01-19T09:57:11Z</time>
      </trkpt>
      <trkpt lat="42.800983" lon="1.403591">
        <ele>1684.4</ele>
        <time>2019-01-19T09:57:27Z</time>
      </trkpt>
      <trkpt lat="42.800892" lon="1.403575">
        <ele>1687.7</ele>
        <time>2019-01-19T09:57:48Z</time>
      </trkpt>
      <trkpt lat="42.800851" lon="1.403602">
        <ele>1690.1</ele>
        <time>2019-01-19T10:02:35Z</time>
      </trkpt>
      <trkpt lat="42.800773" lon="1.403612">
        <ele>1692.7</ele>
        <time>2019-01-19T10:02:55Z</time>
      </trkpt>
      <trkpt lat="42.800712" lon="1.403504">
        <ele>1696.3</ele>
        <time>2019-01-19T10:03:15Z</time>
      </trkpt>
      <trkpt lat="42.800641" lon="1.403432">
        <ele>1699.8</ele>
        <time>2019-01-19T10:03:39Z</time>
      </trkpt>
      <trkpt lat="42.800559" lon="1.403440">
        <ele>1702.9</ele>
        <time>2019-01-19T10:03:59Z</time>
      </trkpt>
      <trkpt lat="42.800473" lon="1.403515">
        <ele>1706.1</ele>
        <time>2019-01-19T10:04:19Z</time>
      </trkpt>
      <trkpt lat="42.800382" lon="1.403551">
        <ele>1709.3</ele>
        <time>2019-01-19T10:04:40Z</time>
      </trkpt>
      <trkpt lat="42.800312" lon="1.403604">
        <ele>1713.1</ele>
        <time>2019-01-19T10:05:01Z</time>
      </trkpt>
      <trkpt lat="42.800278" lon="1.403696">
        <ele>1716.7</ele>
        <time>2019-01-19T10:05:23Z</time>
      </trkpt>
      <trkpt lat="42.800231" lon="1.403758">
        <ele>1720.6</ele>
        <time>2019-01-19T10:05:45Z</time>
      </trkpt>
      <trkpt lat="42.800153" lon="1.403740">
        <ele>1724.6</ele>
        <time>2019-01-19T10:06:07Z</time>
      </trkpt>
      <trkpt lat="42.800064" lon="1.403721">
        <ele>1728.2</ele>
        <time>2019-01-19T10:06:30Z</time>
      </trkpt>
      <trkpt lat="42.799986" lon="1.403667">
        <ele>1732.7</ele>
        <time>2019-01-19T10:06:52Z</time>
      </trkpt>
      <trkpt lat="42.799905" lon="1.403644">
        <ele>1737.0</ele>
        <time>2019-01-19T10:07:15Z</time>
      </trkpt>
      <trkpt lat="42.799844" lon="1.403591">
        <ele>1740.6</ele>
        <time>2019-01-19T10:07:35Z</time>
      </trkpt>
      <trkpt lat="42.799763" lon="1.403644">
        <ele>1744.9</ele>
        <time>2019-01-19T10:07:58Z</time>
      </trkpt>
      <trkpt lat="42.799681" lon="1.403663">
        <ele>1749.2</ele>
        <time>2019-01-19T10:08:23Z</time>
      </trkpt>
      <trkpt lat="42.799593" lon="1.403664">
        <ele>1753.8</ele>
        <time>2019-01-19T10:08:54Z</time>
      </trkpt>
      <trkpt lat="42.799524" lon="1.403613">
        <ele>1757.8</ele>
        <time>2019-01-19T10:09:20Z</time>
      </trkpt>
      <trkpt lat="42.799460" lon="1.403571">
        <ele>1761.5</ele>
        <time>2019-01-19T10:09:44Z</time>
      </trkpt>
      <trkpt lat="42.799382" lon="1.403504">
        <ele>1766.0</ele>
        <time>2019-01-19T10:10:14Z</time>
      </trkpt>
      <trkpt lat="42.799328" lon="1.403435">
        <ele>1770.5</ele>
        <time>2019-01-19T10:10:39Z</time>
      </trkpt>
      <trkpt lat="42.799335" lon="1.403320">
        <ele>1774.5</ele>
        <time>2019-01-19T10:11:03Z</time>
      </trkpt>
      <trkpt lat="42.799332" lon="1.403262">
        <ele>1777.1</ele>
        <time>2019-01-19T10:12:13Z</time>
      </trkpt>
      <trkpt lat="42.799334" lon="1.403278">
        <ele>1776.6</ele>
        <time>2019-01-19T10:16:21Z</time>
      </trkpt>
      <trkpt lat="42.799296" lon="1.403265">
        <ele>1776.9</ele>
        <time>2019-01-19T10:18:15Z</time>
      </trkpt>
      <trkpt lat="42.799212" lon="1.403205">
        <ele>1778.8</ele>
        <time>2019-01-19T10:18:31Z</time>
      </trkpt>
      <trkpt lat="42.799118" lon="1.403190">
        <ele>1781.6</ele>
        <time>2019-01-19T10:18:47Z</time>
      </trkpt>
      <trkpt lat="42.799020" lon="1.403174">
        <ele>1782.5</ele>
        <time>2019-01-19T10:19:01Z</time>
      </trkpt>
      <trkpt lat="42.798925" lon="1.403133">
        <ele>1784.2</ele>
        <time>2019-01-19T10:19:16Z</time>
      </trkpt>
      <trkpt lat="42.798857" lon="1.403038">
        <ele>1786.4</ele>
        <time>2019-01-19T10:19:31Z</time>
      </trkpt>
      <trkpt lat="42.798778" lon="1.402950">
        <ele>1788.7</ele>
        <time>2019-01-19T10:19:46Z</time>
      </trkpt>
      <trkpt lat="42.798727" lon="1.402839">
        <ele>1789.4</ele>
        <time>2019-01-19T10:19:57Z</time>
      </trkpt>
      <trkpt lat="42.798666" lon="1.402737">
        <ele>1789.5</ele>
        <time>2019-01-19T10:20:09Z</time>
      </trkpt>
      <trkpt lat="42.798627" lon="1.402617">
        <ele>1790.9</ele>
        <time>2019-01-19T10:20:24Z</time>
      </trkpt>
      <trkpt lat="42.798597" lon="1.402492">
        <ele>1792.2</ele>
        <time>2019-01-19T10:20:37Z</time>
      </trkpt>
      <trkpt lat="42.798565" lon="1.402365">
        <ele>1794.4</ele>
        <time>2019-01-19T10:20:51Z</time>
      </trkpt>
      <trkpt lat="42.798566" lon="1.402225">
        <ele>1796.7</ele>
        <time>2019-01-19T10:21:07Z</time>
      </trkpt>
      <trkpt lat="42.798557" lon="1.402093">
        <ele>1798.9</ele>
        <time>2019-01-19T10:21:23Z</time>
      </trkpt>
      <trkpt lat="42.798575" lon="1.401953">
        <ele>1802.0</ele>
        <time>2019-01-19T10:21:40Z</time>
      </trkpt>
      <trkpt lat="42.798609" lon="1.401824">
        <ele>1802.4</ele>
        <time>2019-01-19T10:21:53Z</time>
      </trkpt>
      <trkpt lat="42.798611" lon="1.401691">
        <ele>1803.6</ele>
        <time>2019-01-19T10:22:09Z</time>
      </trkpt>
      <trkpt lat="42.798602" lon="1.401565">
        <ele>1805.4</ele>
        <time>2019-01-19T10:22:26Z</time>
      </trkpt>
      <trkpt lat="42.798637" lon="1.401455">
        <ele>1807.7</ele>
        <time>2019-01-19T10:22:41Z</time>
        <name>Col sans nom</name>
      </trkpt>
      <trkpt lat="42.798562" lon="1.401347">
        <ele>1813.8</ele>
        <time>2019-01-19T10:23:50Z</time>
      </trkpt>
      <trkpt lat="42.798504" lon="1.401240">
        <ele>1815.4</ele>
        <time>2019-01-19T10:24:02Z</time>
      </trkpt>
      <trkpt lat="42.798474" lon="1.401169">
        <ele>1816.1</ele>
        <time>2019-01-19T10:25:47Z</time>
      </trkpt>
      <trkpt lat="42.798413" lon="1.401076">
        <ele>1815.6</ele>
        <time>2019-01-19T10:26:42Z</time>
      </trkpt>
      <trkpt lat="42.798375" lon="1.400946">
        <ele>1814.3</ele>
        <time>2019-01-19T10:26:54Z</time>
      </trkpt>
      <trkpt lat="42.798321" lon="1.400846">
        <ele>1812.7</ele>
        <time>2019-01-19T10:27:07Z</time>
      </trkpt>
      <trkpt lat="42.798279" lon="1.400725">
        <ele>1809.7</ele>
        <time>2019-01-19T10:27:20Z</time>
      </trkpt>
      <trkpt lat="42.798238" lon="1.400614">
        <ele>1806.9</ele>
        <time>2019-01-19T10:27:33Z</time>
      </trkpt>
      <trkpt lat="42.798182" lon="1.400505">
        <ele>1805.0</ele>
        <time>2019-01-19T10:27:46Z</time>
      </trkpt>
      <trkpt lat="42.798103" lon="1.400440">
        <ele>1803.1</ele>
        <time>2019-01-19T10:27:58Z</time>
      </trkpt>
      <trkpt lat="42.798076" lon="1.400353">
        <ele>1801.1</ele>
        <time>2019-01-19T10:28:51Z</time>
      </trkpt>
      <trkpt lat="42.798073" lon="1.400234">
        <ele>1797.6</ele>
        <time>2019-01-19T10:29:07Z</time>
      </trkpt>
      <trkpt lat="42.798081" lon="1.400128">
        <ele>1791.9</ele>
        <time>2019-01-19T10:29:25Z</time>
      </trkpt>
      <trkpt lat="42.798071" lon="1.399996">
        <ele>1789.5</ele>
        <time>2019-01-19T10:29:41Z</time>
      </trkpt>
      <trkpt lat="42.798040" lon="1.399878">
        <ele>1784.6</ele>
        <time>2019-01-19T10:30:08Z</time>
      </trkpt>
      <trkpt lat="42.797973" lon="1.399785">
        <ele>1781.7</ele>
        <time>2019-01-19T10:30:21Z</time>
      </trkpt>
      <trkpt lat="42.797938" lon="1.399669">
        <ele>1777.5</ele>
        <time>2019-01-19T10:30:45Z</time>
      </trkpt>
      <trkpt lat="42.797917" lon="1.399562">
        <ele>1773.8</ele>
        <time>2019-01-19T10:31:00Z</time>
      </trkpt>
      <trkpt lat="42.797857" lon="1.399454">
        <ele>1770.3</ele>
        <time>2019-01-19T10:31:13Z</time>
      </trkpt>
      <trkpt lat="42.797815" lon="1.399372">
        <ele>1766.7</ele>
        <time>2019-01-19T10:31:24Z</time>
      </trkpt>
      <trkpt lat="42.797752" lon="1.399322">
        <ele>1762.7</ele>
        <time>2019-01-19T10:31:37Z</time>
      </trkpt>
      <trkpt lat="42.797710" lon="1.399196">
        <ele>1759.5</ele>
        <time>2019-01-19T10:31:52Z</time>
      </trkpt>
      <trkpt lat="42.797734" lon="1.399064">
        <ele>1757.3</ele>
        <time>2019-01-19T10:32:16Z</time>
      </trkpt>
      <trkpt lat="42.797751" lon="1.399004">
        <ele>1756.5</ele>
        <time>2019-01-19T10:33:01Z</time>
      </trkpt>
      <trkpt lat="42.797685" lon="1.398909">
        <ele>1754.6</ele>
        <time>2019-01-19T10:33:13Z</time>
      </trkpt>
      <trkpt lat="42.797628" lon="1.398838">
        <ele>1752.6</ele>
        <time>2019-01-19T10:33:28Z</time>
      </trkpt>
      <trkpt lat="42.797563" lon="1.398780">
        <ele>1749.4</ele>
        <time>2019-01-19T10:33:42Z</time>
      </trkpt>
      <trkpt lat="42.797503" lon="1.398690">
        <ele>1747.1</ele>
        <time>2019-01-19T10:33:57Z</time>
      </trkpt>
      <trkpt lat="42.797410" lon="1.398672">
        <ele>1745.3</ele>
        <time>2019-01-19T10:34:10Z</time>
      </trkpt>
      <trkpt lat="42.797322" lon="1.398687">
        <ele>1742.6</ele>
        <time>2019-01-19T10:34:23Z</time>
      </trkpt>
      <trkpt lat="42.797259" lon="1.398587">
        <ele>1740.3</ele>
        <time>2019-01-19T10:34:38Z</time>
      </trkpt>
      <trkpt lat="42.797260" lon="1.398477">
        <ele>1738.2</ele>
        <time>2019-01-19T10:34:54Z</time>
      </trkpt>
      <trkpt lat="42.797222" lon="1.398396">
        <ele>1736.6</ele>
        <time>2019-01-19T10:35:14Z</time>
      </trkpt>
      <trkpt lat="42.797140" lon="1.398361">
        <ele>1735.7</ele>
        <time>2019-01-19T10:35:30Z</time>
      </trkpt>
      <trkpt lat="42.797055" lon="1.398363">
        <ele>1734.4</ele>
        <time>2019-01-19T10:35:48Z</time>
      </trkpt>
      <trkpt lat="42.796982" lon="1.398421">
        <ele>1733.7</ele>
        <time>2019-01-19T10:36:05Z</time>
      </trkpt>
      <trkpt lat="42.796884" lon="1.398410">
        <ele>1732.5</ele>
        <time>2019-01-19T10:36:25Z</time>
      </trkpt>
      <trkpt lat="42.796792" lon="1.398345">
        <ele>1730.3</ele>
        <time>2019-01-19T10:36:39Z</time>
      </trkpt>
      <trkpt lat="42.796702" lon="1.398303">
        <ele>1726.7</ele>
        <time>2019-01-19T10:36:57Z</time>
      </trkpt>
      <trkpt lat="42.796632" lon="1.398270">
        <ele>1723.2</ele>
        <time>2019-01-19T10:37:31Z</time>
      </trkpt>
      <trkpt lat="42.796605" lon="1.398174">
        <ele>1720.4</ele>
        <time>2019-01-19T10:37:42Z</time>
      </trkpt>
      <trkpt lat="42.796623" lon="1.398062">
        <ele>1717.0</ele>
        <time>2019-01-19T10:37:54Z</time>
      </trkpt>
      <trkpt lat="42.796612" lon="1.397956">
        <ele>1714.6</ele>
        <time>2019-01-19T10:38:04Z</time>
      </trkpt>
      <trkpt lat="42.796583" lon="1.397835">
        <ele>1712.5</ele>
        <time>2019-01-19T10:38:19Z</time>
      </trkpt>
      <trkpt lat="42.796591" lon="1.397709">
        <ele>1710.3</ele>
        <time>2019-01-19T10:38:33Z</time>
      </trkpt>
      <trkpt lat="42.796609" lon="1.397595">
        <ele>1707.4</ele>
        <time>2019-01-19T10:38:47Z</time>
      </trkpt>
      <trkpt lat="42.796551" lon="1.397544">
        <ele>1702.0</ele>
        <time>2019-01-19T10:39:13Z</time>
      </trkpt>
      <trkpt lat="42.796492" lon="1.397449">
        <ele>1697.7</ele>
        <time>2019-01-19T10:40:18Z</time>
      </trkpt>
      <trkpt lat="42.796459" lon="1.397360">
        <ele>1695.2</ele>
        <time>2019-01-19T10:40:48Z</time>
      </trkpt>
      <trkpt lat="42.796404" lon="1.397260">
        <ele>1693.4</ele>
        <time>2019-01-19T10:41:01Z</time>
      </trkpt>
      <trkpt lat="42.796320" lon="1.397219">
        <ele>1690.4</ele>
        <time>2019-01-19T10:41:14Z</time>
      </trkpt>
      <trkpt lat="42.796240" lon="1.397154">
        <ele>1686.5</ele>
        <time>2019-01-19T10:41:28Z</time>
      </trkpt>
      <trkpt lat="42.796162" lon="1.397179">
        <ele>1683.1</ele>
        <time>2019-01-19T10:41:52Z</time>
      </trkpt>
      <trkpt lat="42.796068" lon="1.397195">
        <ele>1683.0</ele>
        <time>2019-01-19T10:42:08Z</time>
      </trkpt>
      <trkpt lat="42.796001" lon="1.397136">
        <ele>1684.5</ele>
        <time>2019-01-19T10:42:28Z</time>
      </trkpt>
      <trkpt lat="42.795924" lon="1.397091">
        <ele>1684.1</ele>
        <time>2019-01-19T10:42:52Z</time>
      </trkpt>
      <trkpt lat="42.795863" lon="1.397092">
        <ele>1680.6</ele>
        <time>2019-01-19T10:43:29Z</time>
      </trkpt>
      <trkpt lat="42.795792" lon="1.397100">
        <ele>1678.2</ele>
        <time>2019-01-19T10:43:45Z</time>
      </trkpt>
      <trkpt lat="42.795703" lon="1.397107">
        <ele>1676.7</ele>
        <time>2019-01-19T10:43:59Z</time>
      </trkpt>
      <trkpt lat="42.795640" lon="1.397173">
        <ele>1675.6</ele>
        <time>2019-01-19T10:44:17Z</time>
      </trkpt>
      <trkpt lat="42.795546" lon="1.397161">
        <ele>1676.2</ele>
        <time>2019-01-19T10:44:31Z</time>
      </trkpt>
      <trkpt lat="42.795493" lon="1.397225">
        <ele>1675.2</ele>
        <time>2019-01-19T10:44:46Z</time>
      </trkpt>
      <trkpt lat="42.795423" lon="1.397153">
        <ele>1672.7</ele>
        <time>2019-01-19T10:45:00Z</time>
      </trkpt>
      <trkpt lat="42.795347" lon="1.397118">
        <ele>1671.9</ele>
        <time>2019-01-19T10:45:15Z</time>
      </trkpt>
      <trkpt lat="42.795257" lon="1.397119">
        <ele>1670.8</ele>
        <time>2019-01-19T10:45:33Z</time>
      </trkpt>
      <trkpt lat="42.795157" lon="1.397099">
        <ele>1670.3</ele>
        <time>2019-01-19T10:45:56Z</time>
      </trkpt>
      <trkpt lat="42.795091" lon="1.397192">
        <ele>1668.3</ele>
        <time>2019-01-19T10:46:11Z</time>
      </trkpt>
      <trkpt lat="42.795005" lon="1.397224">
        <ele>1666.0</ele>
        <time>2019-01-19T10:46:29Z</time>
      </trkpt>
      <trkpt lat="42.794921" lon="1.397312">
        <ele>1664.7</ele>
        <time>2019-01-19T10:46:43Z</time>
      </trkpt>
      <trkpt lat="42.794828" lon="1.397338">
        <ele>1663.1</ele>
        <time>2019-01-19T10:46:55Z</time>
      </trkpt>
      <trkpt lat="42.794738" lon="1.397334">
        <ele>1662.1</ele>
        <time>2019-01-19T10:47:09Z</time>
      </trkpt>
      <trkpt lat="42.794676" lon="1.397277">
        <ele>1662.1</ele>
        <time>2019-01-19T10:48:43Z</time>
      </trkpt>
      <trkpt lat="42.794639" lon="1.397207">
        <ele>1661.8</ele>
        <time>2019-01-19T10:51:45Z</time>
      </trkpt>
      <trkpt lat="42.794596" lon="1.397158">
        <ele>1659.0</ele>
        <time>2019-01-19T10:52:00Z</time>
      </trkpt>
      <trkpt lat="42.794525" lon="1.397079">
        <ele>1657.7</ele>
        <time>2019-01-19T10:52:14Z</time>
      </trkpt>
      <trkpt lat="42.794471" lon="1.397002">
        <ele>1658.3</ele>
        <time>2019-01-19T10:53:06Z</time>
      </trkpt>
      <trkpt lat="42.794378" lon="1.397000">
        <ele>1658.4</ele>
        <time>2019-01-19T10:53:19Z</time>
      </trkpt>
      <trkpt lat="42.794297" lon="1.396955">
        <ele>1657.1</ele>
        <time>2019-01-19T10:53:31Z</time>
      </trkpt>
      <trkpt lat="42.794217" lon="1.396963">
        <ele>1655.9</ele>
        <time>2019-01-19T10:53:57Z</time>
      </trkpt>
      <trkpt lat="42.794145" lon="1.396871">
        <ele>1655.4</ele>
        <time>2019-01-19T10:54:10Z</time>
      </trkpt>
      <trkpt lat="42.794063" lon="1.396784">
        <ele>1655.2</ele>
        <time>2019-01-19T10:54:23Z</time>
      </trkpt>
      <trkpt lat="42.793981" lon="1.396726">
        <ele>1655.1</ele>
        <time>2019-01-19T10:54:34Z</time>
      </trkpt>
      <trkpt lat="42.793905" lon="1.396662">
        <ele>1653.8</ele>
        <time>2019-01-19T10:54:45Z</time>
      </trkpt>
      <trkpt lat="42.793809" lon="1.396634">
        <ele>1652.6</ele>
        <time>2019-01-19T10:54:57Z</time>
      </trkpt>
      <trkpt lat="42.793722" lon="1.396574">
        <ele>1651.5</ele>
        <time>2019-01-19T10:55:10Z</time>
      </trkpt>
      <trkpt lat="42.793652" lon="1.396510">
        <ele>1651.1</ele>
        <time>2019-01-19T10:55:41Z</time>
      </trkpt>
      <trkpt lat="42.793557" lon="1.396477">
        <ele>1650.7</ele>
        <time>2019-01-19T10:55:55Z</time>
      </trkpt>
      <trkpt lat="42.793451" lon="1.396430">
        <ele>1652.0</ele>
        <time>2019-01-19T10:56:10Z</time>
      </trkpt>
      <trkpt lat="42.793383" lon="1.396390">
        <ele>1652.7</ele>
        <time>2019-01-19T10:56:26Z</time>
      </trkpt>
      <trkpt lat="42.793304" lon="1.396362">
        <ele>1653.1</ele>
        <time>2019-01-19T10:57:38Z</time>
      </trkpt>
      <trkpt lat="42.793213" lon="1.396312">
        <ele>1655.1</ele>
        <time>2019-01-19T10:57:59Z</time>
      </trkpt>
      <trkpt lat="42.793134" lon="1.396238">
        <ele>1657.7</ele>
        <time>2019-01-19T10:58:27Z</time>
      </trkpt>
      <trkpt lat="42.793036" lon="1.396265">
        <ele>1663.1</ele>
        <time>2019-01-19T10:59:07Z</time>
      </trkpt>
      <trkpt lat="42.792967" lon="1.396344">
        <ele>1665.5</ele>
        <time>2019-01-19T10:59:31Z</time>
      </trkpt>
      <trkpt lat="42.792861" lon="1.396355">
        <ele>1666.5</ele>
        <time>2019-01-19T10:59:49Z</time>
      </trkpt>
      <trkpt lat="42.792778" lon="1.396319">
        <ele>1669.6</ele>
        <time>2019-01-19T11:00:13Z</time>
      </trkpt>
      <trkpt lat="42.792688" lon="1.396274">
        <ele>1674.4</ele>
        <time>2019-01-19T11:00:48Z</time>
      </trkpt>
      <trkpt lat="42.792597" lon="1.396269">
        <ele>1678.5</ele>
        <time>2019-01-19T11:01:21Z</time>
      </trkpt>
      <trkpt lat="42.792511" lon="1.396208">
        <ele>1679.9</ele>
        <time>2019-01-19T11:01:50Z</time>
      </trkpt>
      <trkpt lat="42.792418" lon="1.396224">
        <ele>1681.8</ele>
        <time>2019-01-19T11:02:08Z</time>
      </trkpt>
      <trkpt lat="42.792338" lon="1.396229">
        <ele>1687.4</ele>
        <time>2019-01-19T11:03:22Z</time>
      </trkpt>
      <trkpt lat="42.792237" lon="1.396199">
        <ele>1688.6</ele>
        <time>2019-01-19T11:06:11Z</time>
      </trkpt>
      <trkpt lat="42.792177" lon="1.396148">
        <ele>1688.4</ele>
        <time>2019-01-19T11:06:58Z</time>
      </trkpt>
      <trkpt lat="42.792094" lon="1.396089">
        <ele>1686.8</ele>
        <time>2019-01-19T11:07:10Z</time>
      </trkpt>
      <trkpt lat="42.792015" lon="1.396045">
        <ele>1683.5</ele>
        <time>2019-01-19T11:07:20Z</time>
      </trkpt>
      <trkpt lat="42.791953" lon="1.395954">
        <ele>1680.3</ele>
        <time>2019-01-19T11:07:32Z</time>
      </trkpt>
      <trkpt lat="42.791912" lon="1.395849">
        <ele>1678.5</ele>
        <time>2019-01-19T11:07:43Z</time>
      </trkpt>
      <trkpt lat="42.791835" lon="1.395817">
        <ele>1674.0</ele>
        <time>2019-01-19T11:07:57Z</time>
      </trkpt>
      <trkpt lat="42.791754" lon="1.395772">
        <ele>1669.5</ele>
        <time>2019-01-19T11:08:08Z</time>
      </trkpt>
      <trkpt lat="42.791669" lon="1.395781">
        <ele>1665.2</ele>
        <time>2019-01-19T11:08:21Z</time>
      </trkpt>
      <trkpt lat="42.791605" lon="1.395709">
        <ele>1661.8</ele>
        <time>2019-01-19T11:08:33Z</time>
      </trkpt>
      <trkpt lat="42.791553" lon="1.395610">
        <ele>1660.1</ele>
        <time>2019-01-19T11:08:51Z</time>
      </trkpt>
      <trkpt lat="42.791489" lon="1.395554">
        <ele>1658.7</ele>
        <time>2019-01-19T11:09:02Z</time>
      </trkpt>
      <trkpt lat="42.791421" lon="1.395569">
        <ele>1657.9</ele>
        <time>2019-01-19T11:09:31Z</time>
      </trkpt>
      <trkpt lat="42.791380" lon="1.395693">
        <ele>1656.7</ele>
        <time>2019-01-19T11:09:45Z</time>
      </trkpt>
      <trkpt lat="42.791305" lon="1.395746">
        <ele>1653.3</ele>
        <time>2019-01-19T11:10:21Z</time>
      </trkpt>
      <trkpt lat="42.791270" lon="1.395814">
        <ele>1648.8</ele>
        <time>2019-01-19T11:10:54Z</time>
      </trkpt>
      <trkpt lat="42.791227" lon="1.395849">
        <ele>1646.6</ele>
        <time>2019-01-19T11:11:11Z</time>
      </trkpt>
      <trkpt lat="42.791182" lon="1.395985">
        <ele>1644.8</ele>
        <time>2019-01-19T11:11:29Z</time>
      </trkpt>
      <trkpt lat="42.791107" lon="1.396019">
        <ele>1640.9</ele>
        <time>2019-01-19T11:11:50Z</time>
      </trkpt>
      <trkpt lat="42.791006" lon="1.396068">
        <ele>1638.9</ele>
        <time>2019-01-19T11:12:19Z</time>
      </trkpt>
      <trkpt lat="42.790900" lon="1.396067">
        <ele>1637.8</ele>
        <time>2019-01-19T11:13:22Z</time>
      </trkpt>
      <trkpt lat="42.790802" lon="1.396054">
        <ele>1636.1</ele>
        <time>2019-01-19T11:13:33Z</time>
      </trkpt>
      <trkpt lat="42.790683" lon="1.396110">
        <ele>1632.2</ele>
        <time>2019-01-19T11:13:48Z</time>
      </trkpt>
      <trkpt lat="42.790604" lon="1.396159">
        <ele>1631.8</ele>
        <time>2019-01-19T11:14:00Z</time>
      </trkpt>
      <trkpt lat="42.790522" lon="1.396179">
        <ele>1630.5</ele>
        <time>2019-01-19T11:14:16Z</time>
      </trkpt>
      <trkpt lat="42.790422" lon="1.396199">
        <ele>1629.8</ele>
        <time>2019-01-19T11:14:32Z</time>
      </trkpt>
      <trkpt lat="42.790319" lon="1.396205">
        <ele>1629.4</ele>
        <time>2019-01-19T11:14:49Z</time>
      </trkpt>
      <trkpt lat="42.790222" lon="1.396191">
        <ele>1629.0</ele>
        <time>2019-01-19T11:15:03Z</time>
      </trkpt>
      <trkpt lat="42.790129" lon="1.396166">
        <ele>1628.5</ele>
        <time>2019-01-19T11:15:17Z</time>
      </trkpt>
      <trkpt lat="42.790046" lon="1.396128">
        <ele>1628.4</ele>
        <time>2019-01-19T11:15:31Z</time>
      </trkpt>
      <trkpt lat="42.789955" lon="1.396101">
        <ele>1627.8</ele>
        <time>2019-01-19T11:15:47Z</time>
      </trkpt>
      <trkpt lat="42.789868" lon="1.396066">
        <ele>1627.0</ele>
        <time>2019-01-19T11:15:59Z</time>
      </trkpt>
      <trkpt lat="42.789774" lon="1.396050">
        <ele>1626.1</ele>
        <time>2019-01-19T11:16:12Z</time>
      </trkpt>
      <trkpt lat="42.789701" lon="1.396003">
        <ele>1625.5</ele>
        <time>2019-01-19T11:16:26Z</time>
      </trkpt>
      <trkpt lat="42.789649" lon="1.395903">
        <ele>1625.2</ele>
        <time>2019-01-19T11:16:41Z</time>
      </trkpt>
      <trkpt lat="42.789606" lon="1.395791">
        <ele>1624.7</ele>
        <time>2019-01-19T11:16:54Z</time>
      </trkpt>
      <trkpt lat="42.789546" lon="1.395713">
        <ele>1623.8</ele>
        <time>2019-01-19T11:17:07Z</time>
      </trkpt>
      <trkpt lat="42.789457" lon="1.395633">
        <ele>1623.5</ele>
        <time>2019-01-19T11:17:24Z</time>
      </trkpt>
      <trkpt lat="42.789369" lon="1.395585">
        <ele>1623.3</ele>
        <time>2019-01-19T11:17:40Z</time>
      </trkpt>
      <trkpt lat="42.789280" lon="1.395538">
        <ele>1622.3</ele>
        <time>2019-01-19T11:17:55Z</time>
      </trkpt>
      <trkpt lat="42.789203" lon="1.395512">
        <ele>1621.7</ele>
        <time>2019-01-19T11:18:09Z</time>
      </trkpt>
      <trkpt lat="42.789133" lon="1.395572">
        <ele>1619.7</ele>
        <time>2019-01-19T11:18:25Z</time>
      </trkpt>
      <trkpt lat="42.789043" lon="1.395532">
        <ele>1619.7</ele>
        <time>2019-01-19T11:18:41Z</time>
      </trkpt>
      <trkpt lat="42.788962" lon="1.395479">
        <ele>1619.5</ele>
        <time>2019-01-19T11:18:56Z</time>
      </trkpt>
      <trkpt lat="42.788865" lon="1.395448">
        <ele>1619.4</ele>
        <time>2019-01-19T11:19:13Z</time>
      </trkpt>
      <trkpt lat="42.788767" lon="1.395405">
        <ele>1619.4</ele>
        <time>2019-01-19T11:19:30Z</time>
      </trkpt>
      <trkpt lat="42.788678" lon="1.395357">
        <ele>1619.9</ele>
        <time>2019-01-19T11:19:48Z</time>
      </trkpt>
      <trkpt lat="42.788592" lon="1.395318">
        <ele>1619.2</ele>
        <time>2019-01-19T11:20:06Z</time>
      </trkpt>
      <trkpt lat="42.788505" lon="1.395303">
        <ele>1619.5</ele>
        <time>2019-01-19T11:20:26Z</time>
      </trkpt>
      <trkpt lat="42.788394" lon="1.395283">
        <ele>1619.2</ele>
        <time>2019-01-19T11:21:25Z</time>
      </trkpt>
      <trkpt lat="42.788300" lon="1.395251">
        <ele>1618.4</ele>
        <time>2019-01-19T11:21:39Z</time>
      </trkpt>
      <trkpt lat="42.788215" lon="1.395193">
        <ele>1618.1</ele>
        <time>2019-01-19T11:22:14Z</time>
      </trkpt>
      <trkpt lat="42.788141" lon="1.395122">
        <ele>1617.6</ele>
        <time>2019-01-19T11:22:28Z</time>
      </trkpt>
      <trkpt lat="42.788056" lon="1.395080">
        <ele>1617.6</ele>
        <time>2019-01-19T11:22:43Z</time>
      </trkpt>
      <trkpt lat="42.787963" lon="1.395040">
        <ele>1617.8</ele>
        <time>2019-01-19T11:22:58Z</time>
      </trkpt>
      <trkpt lat="42.787878" lon="1.395007">
        <ele>1617.8</ele>
        <time>2019-01-19T11:23:16Z</time>
      </trkpt>
      <trkpt lat="42.787782" lon="1.394949">
        <ele>1618.1</ele>
        <time>2019-01-19T11:23:31Z</time>
      </trkpt>
      <trkpt lat="42.787688" lon="1.394903">
        <ele>1617.7</ele>
        <time>2019-01-19T11:23:49Z</time>
      </trkpt>
      <trkpt lat="42.787600" lon="1.394843">
        <ele>1619.2</ele>
        <time>2019-01-19T11:24:09Z</time>
      </trkpt>
      <trkpt lat="42.787518" lon="1.394792">
        <ele>1619.7</ele>
        <time>2019-01-19T11:24:26Z</time>
      </trkpt>
      <trkpt lat="42.787442" lon="1.394716">
        <ele>1620.4</ele>
        <time>2019-01-19T11:24:44Z</time>
      </trkpt>
      <trkpt lat="42.787363" lon="1.394647">
        <ele>1620.4</ele>
        <time>2019-01-19T11:25:01Z</time>
      </trkpt>
      <trkpt lat="42.787288" lon="1.394566">
        <ele>1620.6</ele>
        <time>2019-01-19T11:25:20Z</time>
      </trkpt>
      <trkpt lat="42.787228" lon="1.394560">
        <ele>1621.2</ele>
        <time>2019-01-19T11:28:09Z</time>
      </trkpt>
      <trkpt lat="42.787130" lon="1.394517">
        <ele>1619.6</ele>
        <time>2019-01-19T11:28:22Z</time>
      </trkpt>
      <trkpt lat="42.787118" lon="1.394497">
        <ele>1618.2</ele>
        <time>2019-01-19T11:29:06Z</time>
      </trkpt>
      <trkpt lat="42.787046" lon="1.394399">
        <ele>1617.7</ele>
        <time>2019-01-19T11:29:22Z</time>
      </trkpt>
      <trkpt lat="42.787008" lon="1.394272">
        <ele>1617.3</ele>
        <time>2019-01-19T11:29:42Z</time>
      </trkpt>
      <trkpt lat="42.786999" lon="1.394142">
        <ele>1617.7</ele>
        <time>2019-01-19T11:29:59Z</time>
      </trkpt>
      <trkpt lat="42.786948" lon="1.394044">
        <ele>1615.1</ele>
        <time>2019-01-19T11:30:15Z</time>
      </trkpt>
      <trkpt lat="42.786871" lon="1.393970">
        <ele>1613.4</ele>
        <time>2019-01-19T11:30:30Z</time>
      </trkpt>
      <trkpt lat="42.786843" lon="1.393850">
        <ele>1612.2</ele>
        <time>2019-01-19T11:30:40Z</time>
      </trkpt>
      <trkpt lat="42.786798" lon="1.393754">
        <ele>1610.4</ele>
        <time>2019-01-19T11:30:53Z</time>
      </trkpt>
      <trkpt lat="42.786758" lon="1.393643">
        <ele>1611.2</ele>
        <time>2019-01-19T11:31:10Z</time>
        <name>Pas de la Portere</name>
      </trkpt>
      <trkpt lat="42.786717" lon="1.393550">
        <ele>1612.2</ele>
        <time>2019-01-19T11:31:40Z</time>
      </trkpt>
      <trkpt lat="42.786665" lon="1.393485">
        <ele>1611.4</ele>
        <time>2019-01-19T11:32:02Z</time>
      </trkpt>
      <trkpt lat="42.786592" lon="1.393410">
        <ele>1609.0</ele>
        <time>2019-01-19T11:32:14Z</time>
      </trkpt>
      <trkpt lat="42.786526" lon="1.393424">
        <ele>1605.7</ele>
        <time>2019-01-19T11:33:44Z</time>
      </trkpt>
      <trkpt lat="42.786427" lon="1.393474">
        <ele>1603.8</ele>
        <time>2019-01-19T11:33:58Z</time>
      </trkpt>
      <trkpt lat="42.786337" lon="1.393490">
        <ele>1601.6</ele>
        <time>2019-01-19T11:34:09Z</time>
      </trkpt>
      <trkpt lat="42.786257" lon="1.393527">
        <ele>1599.5</ele>
        <time>2019-01-19T11:34:21Z</time>
      </trkpt>
      <trkpt lat="42.786158" lon="1.393540">
        <ele>1596.6</ele>
        <time>2019-01-19T11:34:34Z</time>
      </trkpt>
      <trkpt lat="42.786019" lon="1.393475">
        <ele>1607.1</ele>
        <time>2019-01-19T11:35:27Z</time>
      </trkpt>
      <trkpt lat="42.785870" lon="1.393334">
        <ele>1606.6</ele>
        <time>2019-01-19T11:36:23Z</time>
      </trkpt>
      <trkpt lat="42.785644" lon="1.393359">
        <ele>1601.4</ele>
        <time>2019-01-19T11:37:33Z</time>
      </trkpt>
      <trkpt lat="42.785274" lon="1.393253">
        <ele>1585.9</ele>
        <time>2019-01-19T11:39:37Z</time>
      </trkpt>
      <trkpt lat="42.785018" lon="1.393324">
        <ele>1579.3</ele>
        <time>2019-01-19T11:40:59Z</time>
      </trkpt>
      <trkpt lat="42.784781" lon="1.393642">
        <ele>1587.8</ele>
        <time>2019-01-19T11:42:43Z</time>
      </trkpt>
      <trkpt lat="42.784525" lon="1.394152">
        <ele>1601.8</ele>
        <time>2019-01-19T11:45:07Z</time>
      </trkpt>
      <trkpt lat="42.784325" lon="1.394571">
        <ele>1605.6</ele>
        <time>2019-01-19T11:47:00Z</time>
      </trkpt>
      <trkpt lat="42.784203" lon="1.394788">
        <ele>1605.4</ele>
        <time>2019-01-19T11:48:01Z</time>
      </trkpt>
      <trkpt lat="42.783866" lon="1.395061">
        <ele>1592.9</ele>
        <time>2019-01-19T11:50:06Z</time>
      </trkpt>
      <trkpt lat="42.783614" lon="1.395343">
        <ele>1585.2</ele>
        <time>2019-01-19T11:51:48Z</time>
      </trkpt>
      <trkpt lat="42.783432" lon="1.395641">
        <ele>1583.1</ele>
        <time>2019-01-19T11:53:15Z</time>
      </trkpt>
      <trkpt lat="42.783247" lon="1.395869">
        <ele>1580.4</ele>
        <time>2019-01-19T11:54:32Z</time>
      </trkpt>
      <trkpt lat="42.783024" lon="1.395949">
        <ele>1574.2</ele>
        <time>2019-01-19T11:55:44Z</time>
      </trkpt>
      <trkpt lat="42.782835" lon="1.395964">
        <ele>1566.7</ele>
        <time>2019-01-19T11:56:46Z</time>
      </trkpt>
      <trkpt lat="42.782639" lon="1.396131">
        <ele>1564.4</ele>
        <time>2019-01-19T11:57:57Z</time>
      </trkpt>
      <trkpt lat="42.782446" lon="1.396272">
        <ele>1562.0</ele>
        <time>2019-01-19T11:59:04Z</time>
      </trkpt>
      <trkpt lat="42.782261" lon="1.396540">
        <ele>1567.8</ele>
        <time>2019-01-19T12:00:28Z</time>
      </trkpt>
      <trkpt lat="42.782113" lon="1.396848">
        <ele>1576.0</ele>
        <time>2019-01-19T12:01:54Z</time>
      </trkpt>
      <trkpt lat="42.782024" lon="1.397085">
        <ele>1583.2</ele>
        <time>2019-01-19T12:02:57Z</time>
      </trkpt>
      <trkpt lat="42.782028" lon="1.397353">
        <ele>1593.1</ele>
        <time>2019-01-19T12:04:03Z</time>
      </trkpt>
      <trkpt lat="42.781994" lon="1.397615">
        <ele>1603.8</ele>
        <time>2019-01-19T12:05:09Z</time>
      </trkpt>
      <trkpt lat="42.781967" lon="1.397880">
        <ele>1599.2</ele>
        <time>2019-01-19T12:06:11Z</time>
      </trkpt>
      <trkpt lat="42.781958" lon="1.397997">
        <ele>1603.3</ele>
        <time>2019-01-19T12:06:37Z</time>
      </trkpt>
      <trkpt lat="42.781968" lon="1.398114">
        <ele>1605.9</ele>
        <time>2019-01-19T12:06:56Z</time>
      </trkpt>
      <trkpt lat="42.781977" lon="1.398203">
        <ele>1609.2</ele>
        <time>2019-01-19T12:07:17Z</time>
      </trkpt>
      <trkpt lat="42.781963" lon="1.398319">
        <ele>1612.8</ele>
        <time>2019-01-19T12:07:38Z</time>
      </trkpt>
      <trkpt lat="42.782031" lon="1.398392">
        <ele>1615.8</ele>
        <time>2019-01-19T12:07:57Z</time>
      </trkpt>
      <trkpt lat="42.782044" lon="1.398506">
        <ele>1619.2</ele>
        <time>2019-01-19T12:08:16Z</time>
      </trkpt>
      <trkpt lat="42.781982" lon="1.398595">
        <ele>1622.1</ele>
        <time>2019-01-19T12:08:33Z</time>
      </trkpt>
      <trkpt lat="42.781976" lon="1.398718">
        <ele>1625.2</ele>
        <time>2019-01-19T12:08:50Z</time>
      </trkpt>
      <trkpt lat="42.781924" lon="1.398816">
        <ele>1629.0</ele>
        <time>2019-01-19T12:09:11Z</time>
      </trkpt>
      <trkpt lat="42.781872" lon="1.398927">
        <ele>1632.2</ele>
        <time>2019-01-19T12:09:30Z</time>
      </trkpt>
      <trkpt lat="42.781837" lon="1.399041">
        <ele>1635.2</ele>
        <time>2019-01-19T12:09:46Z</time>
      </trkpt>
      <trkpt lat="42.781845" lon="1.399158">
        <ele>1638.6</ele>
        <time>2019-01-19T12:10:04Z</time>
      </trkpt>
      <trkpt lat="42.781820" lon="1.399287">
        <ele>1642.3</ele>
        <time>2019-01-19T12:10:22Z</time>
      </trkpt>
      <trkpt lat="42.781768" lon="1.399403">
        <ele>1645.1</ele>
        <time>2019-01-19T12:10:40Z</time>
      </trkpt>
      <trkpt lat="42.781729" lon="1.399521">
        <ele>1647.4</ele>
        <time>2019-01-19T12:10:56Z</time>
      </trkpt>
      <trkpt lat="42.781683" lon="1.399619">
        <ele>1651.0</ele>
        <time>2019-01-19T12:11:16Z</time>
      </trkpt>
      <trkpt lat="42.781675" lon="1.399681">
        <ele>1652.5</ele>
        <time>2019-01-19T12:12:01Z</time>
      </trkpt>
      <trkpt lat="42.781643" lon="1.399802">
        <ele>1656.4</ele>
        <time>2019-01-19T12:12:20Z</time>
      </trkpt>
      <trkpt lat="42.781654" lon="1.399915">
        <ele>1660.9</ele>
        <time>2019-01-19T12:12:41Z</time>
      </trkpt>
      <trkpt lat="42.781662" lon="1.400037">
        <ele>1665.2</ele>
        <time>2019-01-19T12:13:04Z</time>
      </trkpt>
      <trkpt lat="42.781660" lon="1.400155">
        <ele>1668.8</ele>
        <time>2019-01-19T12:13:25Z</time>
      </trkpt>
      <trkpt lat="42.781691" lon="1.400271">
        <ele>1672.4</ele>
        <time>2019-01-19T12:13:46Z</time>
      </trkpt>
      <trkpt lat="42.781705" lon="1.400386">
        <ele>1677.2</ele>
        <time>2019-01-19T12:14:38Z</time>
      </trkpt>
      <trkpt lat="42.781732" lon="1.400492">
        <ele>1680.7</ele>
        <time>2019-01-19T12:14:56Z</time>
      </trkpt>
      <trkpt lat="42.781765" lon="1.400586">
        <ele>1684.9</ele>
        <time>2019-01-19T12:15:16Z</time>
      </trkpt>
      <trkpt lat="42.781740" lon="1.400685">
        <ele>1688.7</ele>
        <time>2019-01-19T12:15:35Z</time>
      </trkpt>
      <trkpt lat="42.781754" lon="1.400794">
        <ele>1693.5</ele>
        <time>2019-01-19T12:16:04Z</time>
      </trkpt>
      <trkpt lat="42.781757" lon="1.400906">
        <ele>1697.2</ele>
        <time>2019-01-19T12:16:24Z</time>
      </trkpt>
      <trkpt lat="42.781745" lon="1.401007">
        <ele>1701.9</ele>
        <time>2019-01-19T12:16:58Z</time>
      </trkpt>
      <trkpt lat="42.781748" lon="1.401117">
        <ele>1705.7</ele>
        <time>2019-01-19T12:17:27Z</time>
      </trkpt>
      <trkpt lat="42.781734" lon="1.401223">
        <ele>1709.8</ele>
        <time>2019-01-19T12:17:58Z</time>
      </trkpt>
      <trkpt lat="42.781730" lon="1.401322">
        <ele>1713.8</ele>
        <time>2019-01-19T12:18:24Z</time>
      </trkpt>
      <trkpt lat="42.781693" lon="1.401412">
        <ele>1717.2</ele>
        <time>2019-01-19T12:18:51Z</time>
      </trkpt>
      <trkpt lat="42.781710" lon="1.401535">
        <ele>1721.5</ele>
        <time>2019-01-19T12:19:24Z</time>
      </trkpt>
      <trkpt lat="42.781737" lon="1.401646">
        <ele>1725.2</ele>
        <time>2019-01-19T12:19:56Z</time>
      </trkpt>
      <trkpt lat="42.781683" lon="1.401745">
        <ele>1727.5</ele>
        <time>2019-01-19T12:20:20Z</time>
      </trkpt>
      <trkpt lat="42.781654" lon="1.401840">
        <ele>1731.0</ele>
        <time>2019-01-19T12:20:49Z</time>
      </trkpt>
      <trkpt lat="42.781610" lon="1.401906">
        <ele>1733.5</ele>
        <time>2019-01-19T12:21:46Z</time>
      </trkpt>
      <trkpt lat="42.781637" lon="1.402254">
        <ele>1765.4</ele>
        <time>2019-01-19T12:23:41Z</time>
      </trkpt>
      <trkpt lat="42.781557" lon="1.402457">
        <ele>1770.0</ele>
        <time>2019-01-19T12:24:34Z</time>
      </trkpt>
      <trkpt lat="42.781514" lon="1.402693">
        <ele>1776.5</ele>
        <time>2019-01-19T12:25:30Z</time>
      </trkpt>
      <trkpt lat="42.781510" lon="1.402871">
        <ele>1781.5</ele>
        <time>2019-01-19T12:26:12Z</time>
      </trkpt>
      <trkpt lat="42.781525" lon="1.403113">
        <ele>1789.2</ele>
        <time>2019-01-19T12:27:09Z</time>
      </trkpt>
      <trkpt lat="42.781481" lon="1.403369">
        <ele>1795.1</ele>
        <time>2019-01-19T12:28:09Z</time>
      </trkpt>
      <trkpt lat="42.781438" lon="1.403532">
        <ele>1795.9</ele>
        <time>2019-01-19T12:28:48Z</time>
      </trkpt>
      <trkpt lat="42.781376" lon="1.403838">
        <ele>1797.7</ele>
        <time>2019-01-19T12:29:58Z</time>
      </trkpt>
      <trkpt lat="42.781384" lon="1.404085">
        <ele>1800.6</ele>
        <time>2019-01-19T12:30:53Z</time>
      </trkpt>
      <trkpt lat="42.781347" lon="1.404346">
        <ele>1798.0</ele>
        <time>2019-01-19T12:31:52Z</time>
        <name>Port de Saleix</name>
      </trkpt>
      <trkpt lat="42.781561" lon="1.404519">
        <ele>1799.5</ele>
        <time>2019-01-19T12:33:07Z</time>
      </trkpt>
      <trkpt lat="42.781785" lon="1.404548">
        <ele>1804.7</ele>
        <time>2019-01-19T12:34:16Z</time>
      </trkpt>
      <trkpt lat="42.781959" lon="1.404529">
        <ele>1809.9</ele>
        <time>2019-01-19T12:35:11Z</time>
      </trkpt>
      <trkpt lat="42.782285" lon="1.404598">
        <ele>1819.1</ele>
        <time>2019-01-19T12:36:53Z</time>
      </trkpt>
      <trkpt lat="42.782557" lon="1.404460">
        <ele>1824.0</ele>
        <time>2019-01-19T12:38:21Z</time>
      </trkpt>
      <trkpt lat="42.782871" lon="1.404444">
        <ele>1832.6</ele>
        <time>2019-01-19T12:39:59Z</time>
      </trkpt>
      <trkpt lat="42.782915" lon="1.404552">
        <ele>1835.6</ele>
        <time>2019-01-19T12:40:18Z</time>
      </trkpt>
      <trkpt lat="42.782994" lon="1.404612">
        <ele>1838.8</ele>
        <time>2019-01-19T12:40:39Z</time>
      </trkpt>
      <trkpt lat="42.783069" lon="1.404645">
        <ele>1842.3</ele>
        <time>2019-01-19T12:40:58Z</time>
      </trkpt>
      <trkpt lat="42.783145" lon="1.404683">
        <ele>1845.1</ele>
        <time>2019-01-19T12:41:16Z</time>
      </trkpt>
      <trkpt lat="42.783220" lon="1.404707">
        <ele>1847.3</ele>
        <time>2019-01-19T12:41:41Z</time>
      </trkpt>
      <trkpt lat="42.783249" lon="1.404726">
        <ele>1848.8</ele>
        <time>2019-01-19T12:45:59Z</time>
      </trkpt>
      <trkpt lat="42.783289" lon="1.404745">
        <ele>1848.0</ele>
        <time>2019-01-19T12:47:11Z</time>
      </trkpt>
      <trkpt lat="42.783382" lon="1.404785">
        <ele>1849.6</ele>
        <time>2019-01-19T12:47:28Z</time>
      </trkpt>
      <trkpt lat="42.783459" lon="1.404837">
        <ele>1850.6</ele>
        <time>2019-01-19T12:47:43Z</time>
      </trkpt>
      <trkpt lat="42.783543" lon="1.404898">
        <ele>1852.2</ele>
        <time>2019-01-19T12:47:59Z</time>
      </trkpt>
      <trkpt lat="42.783627" lon="1.404950">
        <ele>1853.2</ele>
        <time>2019-01-19T12:48:16Z</time>
      </trkpt>
      <trkpt lat="42.783720" lon="1.404992">
        <ele>1854.6</ele>
        <time>2019-01-19T12:48:31Z</time>
      </trkpt>
      <trkpt lat="42.783817" lon="1.404999">
        <ele>1856.1</ele>
        <time>2019-01-19T12:48:49Z</time>
      </trkpt>
      <trkpt lat="42.783911" lon="1.404991">
        <ele>1857.8</ele>
        <time>2019-01-19T12:49:07Z</time>
      </trkpt>
      <trkpt lat="42.783995" lon="1.405031">
        <ele>1860.1</ele>
        <time>2019-01-19T12:49:25Z</time>
      </trkpt>
      <trkpt lat="42.784071" lon="1.405115">
        <ele>1863.1</ele>
        <time>2019-01-19T12:49:49Z</time>
      </trkpt>
      <trkpt lat="42.784141" lon="1.405199">
        <ele>1865.0</ele>
        <time>2019-01-19T12:50:10Z</time>
      </trkpt>
      <trkpt lat="42.784207" lon="1.405303">
        <ele>1867.1</ele>
        <time>2019-01-19T12:50:31Z</time>
      </trkpt>
      <trkpt lat="42.784277" lon="1.405382">
        <ele>1868.5</ele>
        <time>2019-01-19T12:50:48Z</time>
      </trkpt>
      <trkpt lat="42.784357" lon="1.405435">
        <ele>1869.8</ele>
        <time>2019-01-19T12:51:03Z</time>
      </trkpt>
      <trkpt lat="42.784436" lon="1.405462">
        <ele>1871.2</ele>
        <time>2019-01-19T12:51:23Z</time>
      </trkpt>
      <trkpt lat="42.784511" lon="1.405540">
        <ele>1873.3</ele>
        <time>2019-01-19T12:51:40Z</time>
      </trkpt>
      <trkpt lat="42.784579" lon="1.405605">
        <ele>1874.0</ele>
        <time>2019-01-19T12:51:55Z</time>
      </trkpt>
      <trkpt lat="42.784664" lon="1.405650">
        <ele>1875.7</ele>
        <time>2019-01-19T12:52:16Z</time>
      </trkpt>
      <trkpt lat="42.784742" lon="1.405704">
        <ele>1877.8</ele>
        <time>2019-01-19T12:52:40Z</time>
      </trkpt>
      <trkpt lat="42.784817" lon="1.405757">
        <ele>1880.6</ele>
        <time>2019-01-19T12:53:00Z</time>
      </trkpt>
      <trkpt lat="42.784872" lon="1.405832">
        <ele>1884.2</ele>
        <time>2019-01-19T12:53:25Z</time>
      </trkpt>
      <trkpt lat="42.784943" lon="1.405907">
        <ele>1887.0</ele>
        <time>2019-01-19T12:53:46Z</time>
      </trkpt>
      <trkpt lat="42.785003" lon="1.406000">
        <ele>1889.1</ele>
        <time>2019-01-19T12:54:07Z</time>
      </trkpt>
      <trkpt lat="42.785089" lon="1.406040">
        <ele>1891.4</ele>
        <time>2019-01-19T12:54:29Z</time>
      </trkpt>
      <trkpt lat="42.785161" lon="1.406115">
        <ele>1893.8</ele>
        <time>2019-01-19T12:54:52Z</time>
      </trkpt>
      <trkpt lat="42.785256" lon="1.406133">
        <ele>1896.7</ele>
        <time>2019-01-19T12:55:15Z</time>
      </trkpt>
      <trkpt lat="42.785318" lon="1.406236">
        <ele>1900.3</ele>
        <time>2019-01-19T12:55:38Z</time>
      </trkpt>
      <trkpt lat="42.785380" lon="1.406198">
        <ele>1902.5</ele>
        <time>2019-01-19T12:56:03Z</time>
      </trkpt>
      <trkpt lat="42.785450" lon="1.406257">
        <ele>1905.8</ele>
        <time>2019-01-19T12:56:26Z</time>
      </trkpt>
      <trkpt lat="42.785531" lon="1.406306">
        <ele>1909.1</ele>
        <time>2019-01-19T12:56:52Z</time>
      </trkpt>
      <trkpt lat="42.785613" lon="1.406340">
        <ele>1912.6</ele>
        <time>2019-01-19T12:57:20Z</time>
      </trkpt>
      <trkpt lat="42.785687" lon="1.406374">
        <ele>1915.0</ele>
        <time>2019-01-19T12:59:33Z</time>
      </trkpt>
      <trkpt lat="42.785753" lon="1.406468">
        <ele>1917.2</ele>
        <time>2019-01-19T12:59:52Z</time>
      </trkpt>
      <trkpt lat="42.785837" lon="1.406521">
        <ele>1918.7</ele>
        <time>2019-01-19T13:00:10Z</time>
      </trkpt>
      <trkpt lat="42.785928" lon="1.406554">
        <ele>1920.9</ele>
        <time>2019-01-19T13:00:29Z</time>
      </trkpt>
      <trkpt lat="42.786020" lon="1.406580">
        <ele>1923.2</ele>
        <time>2019-01-19T13:00:50Z</time>
      </trkpt>
      <trkpt lat="42.786117" lon="1.406593">
        <ele>1925.4</ele>
        <time>2019-01-19T13:01:12Z</time>
      </trkpt>
      <trkpt lat="42.786213" lon="1.406606">
        <ele>1927.1</ele>
        <time>2019-01-19T13:01:29Z</time>
      </trkpt>
      <trkpt lat="42.786313" lon="1.406621">
        <ele>1929.2</ele>
        <time>2019-01-19T13:01:48Z</time>
      </trkpt>
      <trkpt lat="42.786401" lon="1.406638">
        <ele>1931.2</ele>
        <time>2019-01-19T13:02:08Z</time>
      </trkpt>
      <trkpt lat="42.786494" lon="1.406658">
        <ele>1933.5</ele>
        <time>2019-01-19T13:02:31Z</time>
      </trkpt>
      <trkpt lat="42.786579" lon="1.406701">
        <ele>1937.0</ele>
        <time>2019-01-19T13:02:55Z</time>
      </trkpt>
      <trkpt lat="42.786673" lon="1.406699">
        <ele>1940.1</ele>
        <time>2019-01-19T13:03:19Z</time>
      </trkpt>
      <trkpt lat="42.786762" lon="1.406668">
        <ele>1942.5</ele>
        <time>2019-01-19T13:03:41Z</time>
      </trkpt>
      <trkpt lat="42.786842" lon="1.406640">
        <ele>1946.0</ele>
        <time>2019-01-19T13:04:35Z</time>
      </trkpt>
      <trkpt lat="42.786928" lon="1.406604">
        <ele>1948.8</ele>
        <time>2019-01-19T13:05:04Z</time>
      </trkpt>
      <trkpt lat="42.787020" lon="1.406596">
        <ele>1953.5</ele>
        <time>2019-01-19T13:05:37Z</time>
      </trkpt>
      <trkpt lat="42.787116" lon="1.406594">
        <ele>1957.4</ele>
        <time>2019-01-19T13:06:07Z</time>
      </trkpt>
      <trkpt lat="42.787199" lon="1.406611">
        <ele>1960.5</ele>
        <time>2019-01-19T13:06:33Z</time>
      </trkpt>
      <trkpt lat="42.787288" lon="1.406597">
        <ele>1963.8</ele>
        <time>2019-01-19T13:06:56Z</time>
      </trkpt>
      <trkpt lat="42.787370" lon="1.406591">
        <ele>1967.8</ele>
        <time>2019-01-19T13:07:25Z</time>
      </trkpt>
      <trkpt lat="42.787463" lon="1.406561">
        <ele>1971.2</ele>
        <time>2019-01-19T13:07:54Z</time>
      </trkpt>
      <trkpt lat="42.787546" lon="1.406545">
        <ele>1975.2</ele>
        <time>2019-01-19T13:08:20Z</time>
      </trkpt>
      <trkpt lat="42.787629" lon="1.406558">
        <ele>1979.7</ele>
        <time>2019-01-19T13:08:48Z</time>
      </trkpt>
      <trkpt lat="42.787729" lon="1.406522">
        <ele>1985.6</ele>
        <time>2019-01-19T13:09:34Z</time>
      </trkpt>
      <trkpt lat="42.787800" lon="1.406554">
        <ele>1990.3</ele>
        <time>2019-01-19T13:10:03Z</time>
      </trkpt>
      <trkpt lat="42.787880" lon="1.406598">
        <ele>1995.5</ele>
        <time>2019-01-19T13:10:40Z</time>
      </trkpt>
      <trkpt lat="42.787965" lon="1.406604">
        <ele>1999.2</ele>
        <time>2019-01-19T13:11:05Z</time>
      </trkpt>
      <trkpt lat="42.788039" lon="1.406664">
        <ele>2004.1</ele>
        <time>2019-01-19T13:11:35Z</time>
      </trkpt>
      <trkpt lat="42.788117" lon="1.406722">
        <ele>2008.2</ele>
        <time>2019-01-19T13:12:07Z</time>
      </trkpt>
      <trkpt lat="42.788207" lon="1.406739">
        <ele>2011.9</ele>
        <time>2019-01-19T13:12:30Z</time>
      </trkpt>
      <trkpt lat="42.788282" lon="1.406794">
        <ele>2015.6</ele>
        <time>2019-01-19T13:12:51Z</time>
      </trkpt>
      <trkpt lat="42.788370" lon="1.406784">
        <ele>2018.5</ele>
        <time>2019-01-19T13:13:16Z</time>
      </trkpt>
      <trkpt lat="42.788470" lon="1.406788">
        <ele>2023.0</ele>
        <time>2019-01-19T13:13:46Z</time>
      </trkpt>
      <trkpt lat="42.788566" lon="1.406782">
        <ele>2026.4</ele>
        <time>2019-01-19T13:14:09Z</time>
      </trkpt>
      <trkpt lat="42.788650" lon="1.406786">
        <ele>2030.1</ele>
        <time>2019-01-19T13:14:37Z</time>
      </trkpt>
      <trkpt lat="42.788735" lon="1.406781">
        <ele>2033.6</ele>
        <time>2019-01-19T13:15:01Z</time>
      </trkpt>
      <trkpt lat="42.788816" lon="1.406760">
        <ele>2037.0</ele>
        <time>2019-01-19T13:15:25Z</time>
      </trkpt>
      <trkpt lat="42.788903" lon="1.406747">
        <ele>2042.3</ele>
        <time>2019-01-19T13:15:55Z</time>
      </trkpt>
      <trkpt lat="42.788996" lon="1.406725">
        <ele>2046.1</ele>
        <time>2019-01-19T13:16:23Z</time>
      </trkpt>
      <trkpt lat="42.789055" lon="1.406744">
        <ele>2050.0</ele>
        <time>2019-01-19T13:16:55Z</time>
      </trkpt>
      <trkpt lat="42.789141" lon="1.406730">
        <ele>2054.3</ele>
        <time>2019-01-19T13:17:30Z</time>
      </trkpt>
      <trkpt lat="42.789231" lon="1.406695">
        <ele>2057.7</ele>
        <time>2019-01-19T13:17:54Z</time>
      </trkpt>
      <trkpt lat="42.789320" lon="1.406688">
        <ele>2062.5</ele>
        <time>2019-01-19T13:18:29Z</time>
      </trkpt>
      <trkpt lat="42.789412" lon="1.406666">
        <ele>2067.0</ele>
        <time>2019-01-19T13:19:00Z</time>
      </trkpt>
      <trkpt lat="42.789507" lon="1.406705">
        <ele>2072.8</ele>
        <time>2019-01-19T13:19:42Z</time>
      </trkpt>
      <trkpt lat="42.789609" lon="1.406713">
        <ele>2076.1</ele>
        <time>2019-01-19T13:20:09Z</time>
      </trkpt>
      <trkpt lat="42.789686" lon="1.406713">
        <ele>2079.2</ele>
        <time>2019-01-19T13:20:50Z</time>
      </trkpt>
      <trkpt lat="42.789796" lon="1.406699">
        <ele>2082.3</ele>
        <time>2019-01-19T13:21:13Z</time>
      </trkpt>
      <trkpt lat="42.789871" lon="1.406676">
        <ele>2085.0</ele>
        <time>2019-01-19T13:21:34Z</time>
      </trkpt>
      <trkpt lat="42.789923" lon="1.406693">
        <ele>2089.2</ele>
        <time>2019-01-19T13:22:22Z</time>
      </trkpt>
      <trkpt lat="42.790012" lon="1.406652">
        <ele>2092.9</ele>
        <time>2019-01-19T13:22:44Z</time>
      </trkpt>
      <trkpt lat="42.790101" lon="1.406632">
        <ele>2096.7</ele>
        <time>2019-01-19T13:23:04Z</time>
        <name>Pic de girantes</name>
      </trkpt>
      <trkpt lat="42.790161" lon="1.406589">
        <ele>2096.9</ele>
        <time>2019-01-19T14:00:55Z</time>
      </trkpt>
      <trkpt lat="42.790173" lon="1.406575">
        <ele>2097.7</ele>
        <time>2019-01-19T14:05:43Z</time>
      </trkpt>
      <trkpt lat="42.790246" lon="1.406548">
        <ele>2096.6</ele>
        <time>2019-01-19T14:05:55Z</time>
      </trkpt>
      <trkpt lat="42.790330" lon="1.406533">
        <ele>2093.3</ele>
        <time>2019-01-19T14:06:13Z</time>
      </trkpt>
      <trkpt lat="42.790394" lon="1.406473">
        <ele>2090.8</ele>
        <time>2019-01-19T14:07:06Z</time>
      </trkpt>
      <trkpt lat="42.790485" lon="1.406440">
        <ele>2088.5</ele>
        <time>2019-01-19T14:07:16Z</time>
      </trkpt>
      <trkpt lat="42.790561" lon="1.406374">
        <ele>2085.9</ele>
        <time>2019-01-19T14:07:26Z</time>
      </trkpt>
      <trkpt lat="42.790637" lon="1.406313">
        <ele>2081.6</ele>
        <time>2019-01-19T14:07:46Z</time>
      </trkpt>
      <trkpt lat="42.790719" lon="1.406231">
        <ele>2078.1</ele>
        <time>2019-01-19T14:07:59Z</time>
      </trkpt>
      <trkpt lat="42.790813" lon="1.406176">
        <ele>2074.4</ele>
        <time>2019-01-19T14:08:11Z</time>
      </trkpt>
      <trkpt lat="42.790898" lon="1.406118">
        <ele>2070.7</ele>
        <time>2019-01-19T14:08:23Z</time>
      </trkpt>
      <trkpt lat="42.790985" lon="1.406041">
        <ele>2065.8</ele>
        <time>2019-01-19T14:08:39Z</time>
      </trkpt>
      <trkpt lat="42.791062" lon="1.406007">
        <ele>2062.7</ele>
        <time>2019-01-19T14:08:51Z</time>
      </trkpt>
      <trkpt lat="42.791144" lon="1.405941">
        <ele>2057.9</ele>
        <time>2019-01-19T14:09:09Z</time>
      </trkpt>
      <trkpt lat="42.791238" lon="1.405895">
        <ele>2053.6</ele>
        <time>2019-01-19T14:09:26Z</time>
      </trkpt>
      <trkpt lat="42.791327" lon="1.405832">
        <ele>2050.3</ele>
        <time>2019-01-19T14:09:41Z</time>
      </trkpt>
      <trkpt lat="42.791422" lon="1.405816">
        <ele>2045.3</ele>
        <time>2019-01-19T14:10:05Z</time>
      </trkpt>
      <trkpt lat="42.791525" lon="1.405799">
        <ele>2041.6</ele>
        <time>2019-01-19T14:10:20Z</time>
      </trkpt>
      <trkpt lat="42.791608" lon="1.405763">
        <ele>2038.1</ele>
        <time>2019-01-19T14:10:32Z</time>
      </trkpt>
      <trkpt lat="42.791699" lon="1.405726">
        <ele>2033.7</ele>
        <time>2019-01-19T14:10:47Z</time>
      </trkpt>
      <trkpt lat="42.791751" lon="1.405633">
        <ele>2029.4</ele>
        <time>2019-01-19T14:11:06Z</time>
      </trkpt>
      <trkpt lat="42.791826" lon="1.405578">
        <ele>2025.8</ele>
        <time>2019-01-19T14:11:22Z</time>
      </trkpt>
      <trkpt lat="42.791914" lon="1.405558">
        <ele>2022.5</ele>
        <time>2019-01-19T14:11:36Z</time>
      </trkpt>
      <trkpt lat="42.792006" lon="1.405526">
        <ele>2018.0</ele>
        <time>2019-01-19T14:11:51Z</time>
      </trkpt>
      <trkpt lat="42.792094" lon="1.405488">
        <ele>2013.6</ele>
        <time>2019-01-19T14:12:09Z</time>
      </trkpt>
      <trkpt lat="42.792177" lon="1.405445">
        <ele>2009.1</ele>
        <time>2019-01-19T14:12:24Z</time>
      </trkpt>
      <trkpt lat="42.792248" lon="1.405381">
        <ele>2005.8</ele>
        <time>2019-01-19T14:12:39Z</time>
      </trkpt>
      <trkpt lat="42.792325" lon="1.405356">
        <ele>2000.2</ele>
        <time>2019-01-19T14:13:00Z</time>
      </trkpt>
      <trkpt lat="42.792417" lon="1.405309">
        <ele>1997.3</ele>
        <time>2019-01-19T14:13:15Z</time>
      </trkpt>
      <trkpt lat="42.792484" lon="1.405257">
        <ele>1993.9</ele>
        <time>2019-01-19T14:13:27Z</time>
      </trkpt>
      <trkpt lat="42.792576" lon="1.405202">
        <ele>1989.0</ele>
        <time>2019-01-19T14:13:46Z</time>
      </trkpt>
      <trkpt lat="42.792662" lon="1.405152">
        <ele>1984.4</ele>
        <time>2019-01-19T14:14:02Z</time>
      </trkpt>
      <trkpt lat="42.792768" lon="1.405097">
        <ele>1979.6</ele>
        <time>2019-01-19T14:14:20Z</time>
      </trkpt>
      <trkpt lat="42.792861" lon="1.405048">
        <ele>1975.6</ele>
        <time>2019-01-19T14:14:39Z</time>
      </trkpt>
      <trkpt lat="42.792946" lon="1.405014">
        <ele>1973.2</ele>
        <time>2019-01-19T14:14:49Z</time>
      </trkpt>
      <trkpt lat="42.793038" lon="1.404990">
        <ele>1968.9</ele>
        <time>2019-01-19T14:15:06Z</time>
      </trkpt>
      <trkpt lat="42.793126" lon="1.404958">
        <ele>1965.6</ele>
        <time>2019-01-19T14:15:20Z</time>
      </trkpt>
      <trkpt lat="42.793220" lon="1.404906">
        <ele>1960.4</ele>
        <time>2019-01-19T14:15:38Z</time>
      </trkpt>
      <trkpt lat="42.793306" lon="1.404887">
        <ele>1958.3</ele>
        <time>2019-01-19T14:15:47Z</time>
      </trkpt>
      <trkpt lat="42.793396" lon="1.404871">
        <ele>1955.5</ele>
        <time>2019-01-19T14:16:02Z</time>
      </trkpt>
      <trkpt lat="42.793490" lon="1.404861">
        <ele>1951.7</ele>
        <time>2019-01-19T14:16:18Z</time>
      </trkpt>
      <trkpt lat="42.793590" lon="1.404804">
        <ele>1947.5</ele>
        <time>2019-01-19T14:16:36Z</time>
      </trkpt>
      <trkpt lat="42.793690" lon="1.404763">
        <ele>1945.0</ele>
        <time>2019-01-19T14:16:48Z</time>
      </trkpt>
      <trkpt lat="42.793793" lon="1.404743">
        <ele>1942.0</ele>
        <time>2019-01-19T14:17:05Z</time>
      </trkpt>
      <trkpt lat="42.793894" lon="1.404724">
        <ele>1938.9</ele>
        <time>2019-01-19T14:17:19Z</time>
      </trkpt>
      <trkpt lat="42.793997" lon="1.404694">
        <ele>1935.3</ele>
        <time>2019-01-19T14:17:37Z</time>
      </trkpt>
      <trkpt lat="42.794057" lon="1.404623">
        <ele>1933.6</ele>
        <time>2019-01-19T14:20:29Z</time>
      </trkpt>
      <trkpt lat="42.794129" lon="1.404529">
        <ele>1932.7</ele>
        <time>2019-01-19T14:20:40Z</time>
      </trkpt>
      <trkpt lat="42.794220" lon="1.404490">
        <ele>1932.1</ele>
        <time>2019-01-19T14:20:52Z</time>
      </trkpt>
      <trkpt lat="42.794294" lon="1.404413">
        <ele>1931.1</ele>
        <time>2019-01-19T14:21:05Z</time>
      </trkpt>
      <trkpt lat="42.794354" lon="1.404308">
        <ele>1929.0</ele>
        <time>2019-01-19T14:21:18Z</time>
      </trkpt>
      <trkpt lat="42.794363" lon="1.404174">
        <ele>1930.3</ele>
        <time>2019-01-19T14:21:33Z</time>
      </trkpt>
      <trkpt lat="42.794412" lon="1.404055">
        <ele>1929.4</ele>
        <time>2019-01-19T14:21:44Z</time>
      </trkpt>
      <trkpt lat="42.794467" lon="1.403938">
        <ele>1927.4</ele>
        <time>2019-01-19T14:21:57Z</time>
      </trkpt>
      <trkpt lat="42.794529" lon="1.403828">
        <ele>1925.4</ele>
        <time>2019-01-19T14:22:08Z</time>
      </trkpt>
      <trkpt lat="42.794620" lon="1.403801">
        <ele>1924.2</ele>
        <time>2019-01-19T14:22:20Z</time>
      </trkpt>
      <trkpt lat="42.794712" lon="1.403804">
        <ele>1924.0</ele>
        <time>2019-01-19T14:22:32Z</time>
      </trkpt>
      <trkpt lat="42.794805" lon="1.403818">
        <ele>1923.0</ele>
        <time>2019-01-19T14:22:44Z</time>
      </trkpt>
      <trkpt lat="42.794900" lon="1.403857">
        <ele>1921.7</ele>
        <time>2019-01-19T14:22:56Z</time>
      </trkpt>
      <trkpt lat="42.794999" lon="1.403895">
        <ele>1920.8</ele>
        <time>2019-01-19T14:23:07Z</time>
      </trkpt>
      <trkpt lat="42.795344" lon="1.403980">
        <ele>1909.3</ele>
        <time>2019-01-19T14:24:31Z</time>
      </trkpt>
      <trkpt lat="42.795696" lon="1.404060">
        <ele>1916.0</ele>
        <time>2019-01-19T14:25:55Z</time>
      </trkpt>
      <trkpt lat="42.796056" lon="1.404151">
        <ele>1918.3</ele>
        <time>2019-01-19T14:27:20Z</time>
      </trkpt>
      <trkpt lat="42.796375" lon="1.404128">
        <ele>1914.1</ele>
        <time>2019-01-19T14:28:35Z</time>
      </trkpt>
      <trkpt lat="42.796685" lon="1.404014">
        <ele>1905.8</ele>
        <time>2019-01-19T14:29:51Z</time>
      </trkpt>
      <trkpt lat="42.797104" lon="1.403854">
        <ele>1877.7</ele>
        <time>2019-01-19T14:31:48Z</time>
      </trkpt>
      <trkpt lat="42.797338" lon="1.403717">
        <ele>1861.1</ele>
        <time>2019-01-19T14:32:56Z</time>
      </trkpt>
      <trkpt lat="42.797422" lon="1.403500">
        <ele>1851.0</ele>
        <time>2019-01-19T14:33:43Z</time>
      </trkpt>
      <trkpt lat="42.797690" lon="1.403089">
        <ele>1827.9</ele>
        <time>2019-01-19T14:35:28Z</time>
      </trkpt>
      <trkpt lat="42.797799" lon="1.402678">
        <ele>1816.4</ele>
        <time>2019-01-19T14:36:46Z</time>
      </trkpt>
      <trkpt lat="42.797916" lon="1.402142">
        <ele>1807.9</ele>
        <time>2019-01-19T14:38:23Z</time>
      </trkpt>
      <trkpt lat="42.798034" lon="1.401822">
        <ele>1803.3</ele>
        <time>2019-01-19T14:39:25Z</time>
      </trkpt>
      <trkpt lat="42.798223" lon="1.401568">
        <ele>1832.6</ele>
        <time>2019-01-19T14:40:52Z</time>
      </trkpt>
      <trkpt lat="42.798281" lon="1.401507">
        <ele>1829.5</ele>
        <time>2019-01-19T14:41:08Z</time>
      </trkpt>
      <trkpt lat="42.798317" lon="1.401396">
        <ele>1826.8</ele>
        <time>2019-01-19T14:41:39Z</time>
      </trkpt>
      <trkpt lat="42.798397" lon="1.401313">
        <ele>1824.0</ele>
        <time>2019-01-19T14:41:50Z</time>
      </trkpt>
      <trkpt lat="42.798481" lon="1.401295">
        <ele>1821.5</ele>
        <time>2019-01-19T14:42:01Z</time>
      </trkpt>
      <trkpt lat="42.798564" lon="1.401361">
        <ele>1818.2</ele>
        <time>2019-01-19T14:42:21Z</time>
      </trkpt>
      <trkpt lat="42.798618" lon="1.401454">
        <ele>1816.1</ele>
        <time>2019-01-19T14:42:34Z</time>
      </trkpt>
      <trkpt lat="42.798596" lon="1.401573">
        <ele>1813.1</ele>
        <time>2019-01-19T14:42:46Z</time>
      </trkpt>
      <trkpt lat="42.798559" lon="1.401681">
        <ele>1811.3</ele>
        <time>2019-01-19T14:42:58Z</time>
      </trkpt>
      <trkpt lat="42.798576" lon="1.401804">
        <ele>1809.1</ele>
        <time>2019-01-19T14:43:08Z</time>
      </trkpt>
      <trkpt lat="42.798565" lon="1.401929">
        <ele>1807.8</ele>
        <time>2019-01-19T14:43:18Z</time>
      </trkpt>
      <trkpt lat="42.798553" lon="1.402066">
        <ele>1806.4</ele>
        <time>2019-01-19T14:43:30Z</time>
      </trkpt>
      <trkpt lat="42.798552" lon="1.402190">
        <ele>1805.1</ele>
        <time>2019-01-19T14:43:43Z</time>
      </trkpt>
      <trkpt lat="42.798575" lon="1.402314">
        <ele>1803.2</ele>
        <time>2019-01-19T14:43:52Z</time>
      </trkpt>
      <trkpt lat="42.798599" lon="1.402432">
        <ele>1801.6</ele>
        <time>2019-01-19T14:44:01Z</time>
      </trkpt>
      <trkpt lat="42.798629" lon="1.402541">
        <ele>1799.3</ele>
        <time>2019-01-19T14:44:18Z</time>
      </trkpt>
      <trkpt lat="42.798648" lon="1.402655">
        <ele>1798.2</ele>
        <time>2019-01-19T14:44:32Z</time>
      </trkpt>
      <trkpt lat="42.798700" lon="1.402766">
        <ele>1796.5</ele>
        <time>2019-01-19T14:44:44Z</time>
      </trkpt>
      <trkpt lat="42.798748" lon="1.402864">
        <ele>1795.1</ele>
        <time>2019-01-19T14:44:55Z</time>
      </trkpt>
      <trkpt lat="42.798802" lon="1.402974">
        <ele>1794.7</ele>
        <time>2019-01-19T14:45:06Z</time>
      </trkpt>
      <trkpt lat="42.798868" lon="1.403071">
        <ele>1794.0</ele>
        <time>2019-01-19T14:45:16Z</time>
      </trkpt>
      <trkpt lat="42.798932" lon="1.403153">
        <ele>1792.2</ele>
        <time>2019-01-19T14:45:25Z</time>
      </trkpt>
      <trkpt lat="42.799004" lon="1.403195">
        <ele>1790.6</ele>
        <time>2019-01-19T14:45:33Z</time>
      </trkpt>
      <trkpt lat="42.799100" lon="1.403228">
        <ele>1788.6</ele>
        <time>2019-01-19T14:45:42Z</time>
      </trkpt>
      <trkpt lat="42.799182" lon="1.403291">
        <ele>1787.9</ele>
        <time>2019-01-19T14:45:51Z</time>
      </trkpt>
      <trkpt lat="42.799263" lon="1.403313">
        <ele>1786.7</ele>
        <time>2019-01-19T14:46:02Z</time>
      </trkpt>
      <trkpt lat="42.799342" lon="1.403350">
        <ele>1783.9</ele>
        <time>2019-01-19T14:46:12Z</time>
      </trkpt>
      <trkpt lat="42.799369" lon="1.403447">
        <ele>1780.1</ele>
        <time>2019-01-19T14:46:26Z</time>
      </trkpt>
      <trkpt lat="42.799439" lon="1.403500">
        <ele>1774.7</ele>
        <time>2019-01-19T14:46:44Z</time>
      </trkpt>
      <trkpt lat="42.799443" lon="1.403593">
        <ele>1770.1</ele>
        <time>2019-01-19T14:47:19Z</time>
      </trkpt>
      <trkpt lat="42.799527" lon="1.403648">
        <ele>1767.2</ele>
        <time>2019-01-19T14:47:37Z</time>
      </trkpt>
      <trkpt lat="42.799596" lon="1.403683">
        <ele>1763.7</ele>
        <time>2019-01-19T14:47:49Z</time>
      </trkpt>
      <trkpt lat="42.799676" lon="1.403665">
        <ele>1759.2</ele>
        <time>2019-01-19T14:48:00Z</time>
      </trkpt>
      <trkpt lat="42.799746" lon="1.403663">
        <ele>1754.9</ele>
        <time>2019-01-19T14:48:11Z</time>
      </trkpt>
      <trkpt lat="42.799839" lon="1.403654">
        <ele>1749.5</ele>
        <time>2019-01-19T14:48:24Z</time>
      </trkpt>
      <trkpt lat="42.799918" lon="1.403680">
        <ele>1745.5</ele>
        <time>2019-01-19T14:48:34Z</time>
      </trkpt>
      <trkpt lat="42.799999" lon="1.403724">
        <ele>1740.4</ele>
        <time>2019-01-19T14:48:46Z</time>
      </trkpt>
      <trkpt lat="42.800095" lon="1.403746">
        <ele>1734.9</ele>
        <time>2019-01-19T14:48:58Z</time>
      </trkpt>
      <trkpt lat="42.800177" lon="1.403771">
        <ele>1730.8</ele>
        <time>2019-01-19T14:49:09Z</time>
      </trkpt>
      <trkpt lat="42.800256" lon="1.403757">
        <ele>1724.8</ele>
        <time>2019-01-19T14:49:26Z</time>
      </trkpt>
      <trkpt lat="42.800334" lon="1.403658">
        <ele>1719.8</ele>
        <time>2019-01-19T14:49:39Z</time>
      </trkpt>
      <trkpt lat="42.800417" lon="1.403593">
        <ele>1715.8</ele>
        <time>2019-01-19T14:49:52Z</time>
      </trkpt>
      <trkpt lat="42.800510" lon="1.403587">
        <ele>1710.7</ele>
        <time>2019-01-19T14:50:05Z</time>
      </trkpt>
      <trkpt lat="42.800615" lon="1.403603">
        <ele>1706.9</ele>
        <time>2019-01-19T14:50:17Z</time>
      </trkpt>
      <trkpt lat="42.800720" lon="1.403612">
        <ele>1702.5</ele>
        <time>2019-01-19T14:50:29Z</time>
      </trkpt>
      <trkpt lat="42.800821" lon="1.403581">
        <ele>1698.4</ele>
        <time>2019-01-19T14:50:41Z</time>
      </trkpt>
      <trkpt lat="42.800920" lon="1.403569">
        <ele>1694.6</ele>
        <time>2019-01-19T14:50:52Z</time>
      </trkpt>
      <trkpt lat="42.800984" lon="1.403577">
        <ele>1691.1</ele>
        <time>2019-01-19T14:52:09Z</time>
      </trkpt>
      <trkpt lat="42.801064" lon="1.403605">
        <ele>1689.0</ele>
        <time>2019-01-19T14:52:20Z</time>
      </trkpt>
      <trkpt lat="42.801150" lon="1.403616">
        <ele>1685.6</ele>
        <time>2019-01-19T14:52:32Z</time>
      </trkpt>
      <trkpt lat="42.801241" lon="1.403629">
        <ele>1682.5</ele>
        <time>2019-01-19T14:52:43Z</time>
      </trkpt>
      <trkpt lat="42.801335" lon="1.403661">
        <ele>1680.3</ele>
        <time>2019-01-19T14:52:53Z</time>
      </trkpt>
      <trkpt lat="42.801431" lon="1.403694">
        <ele>1676.7</ele>
        <time>2019-01-19T14:53:19Z</time>
      </trkpt>
      <trkpt lat="42.801523" lon="1.403701">
        <ele>1674.5</ele>
        <time>2019-01-19T14:53:31Z</time>
      </trkpt>
      <trkpt lat="42.801615" lon="1.403698">
        <ele>1671.4</ele>
        <time>2019-01-19T14:53:44Z</time>
      </trkpt>
      <trkpt lat="42.801717" lon="1.403695">
        <ele>1667.8</ele>
        <time>2019-01-19T14:53:58Z</time>
      </trkpt>
      <trkpt lat="42.801791" lon="1.403644">
        <ele>1664.9</ele>
        <time>2019-01-19T14:54:11Z</time>
      </trkpt>
      <trkpt lat="42.801871" lon="1.403629">
        <ele>1662.2</ele>
        <time>2019-01-19T14:55:46Z</time>
      </trkpt>
      <trkpt lat="42.801956" lon="1.403572">
        <ele>1660.1</ele>
        <time>2019-01-19T14:55:57Z</time>
      </trkpt>
      <trkpt lat="42.802039" lon="1.403507">
        <ele>1656.7</ele>
        <time>2019-01-19T14:56:09Z</time>
      </trkpt>
      <trkpt lat="42.802115" lon="1.403433">
        <ele>1654.5</ele>
        <time>2019-01-19T14:56:20Z</time>
      </trkpt>
      <trkpt lat="42.802196" lon="1.403365">
        <ele>1650.3</ele>
        <time>2019-01-19T14:56:32Z</time>
      </trkpt>
      <trkpt lat="42.802260" lon="1.403280">
        <ele>1647.1</ele>
        <time>2019-01-19T14:56:44Z</time>
      </trkpt>
      <trkpt lat="42.802348" lon="1.403231">
        <ele>1644.4</ele>
        <time>2019-01-19T14:56:56Z</time>
      </trkpt>
      <trkpt lat="42.802433" lon="1.403209">
        <ele>1641.2</ele>
        <time>2019-01-19T14:57:07Z</time>
      </trkpt>
      <trkpt lat="42.802524" lon="1.403177">
        <ele>1637.8</ele>
        <time>2019-01-19T14:57:20Z</time>
      </trkpt>
      <trkpt lat="42.802612" lon="1.403156">
        <ele>1633.8</ele>
        <time>2019-01-19T14:57:32Z</time>
      </trkpt>
      <trkpt lat="42.802700" lon="1.403152">
        <ele>1630.5</ele>
        <time>2019-01-19T14:57:44Z</time>
      </trkpt>
      <trkpt lat="42.802774" lon="1.403135">
        <ele>1625.7</ele>
        <time>2019-01-19T14:58:00Z</time>
      </trkpt>
      <trkpt lat="42.802862" lon="1.403167">
        <ele>1620.8</ele>
        <time>2019-01-19T14:58:21Z</time>
      </trkpt>
      <trkpt lat="42.802956" lon="1.403182">
        <ele>1615.0</ele>
        <time>2019-01-19T14:58:40Z</time>
      </trkpt>
      <trkpt lat="42.803020" lon="1.403114">
        <ele>1609.3</ele>
        <time>2019-01-19T14:58:58Z</time>
      </trkpt>
      <trkpt lat="42.803048" lon="1.403015">
        <ele>1605.7</ele>
        <time>2019-01-19T14:59:13Z</time>
      </trkpt>
      <trkpt lat="42.803113" lon="1.402981">
        <ele>1599.8</ele>
        <time>2019-01-19T14:59:32Z</time>
      </trkpt>
      <trkpt lat="42.803183" lon="1.402918">
        <ele>1595.0</ele>
        <time>2019-01-19T14:59:51Z</time>
      </trkpt>
      <trkpt lat="42.803244" lon="1.402829">
        <ele>1591.1</ele>
        <time>2019-01-19T15:00:04Z</time>
      </trkpt>
      <trkpt lat="42.803275" lon="1.402736">
        <ele>1587.8</ele>
        <time>2019-01-19T15:00:15Z</time>
      </trkpt>
      <trkpt lat="42.803357" lon="1.402685">
        <ele>1583.7</ele>
        <time>2019-01-19T15:00:29Z</time>
      </trkpt>
      <trkpt lat="42.803425" lon="1.402636">
        <ele>1579.8</ele>
        <time>2019-01-19T15:00:42Z</time>
      </trkpt>
      <trkpt lat="42.803512" lon="1.402640">
        <ele>1576.1</ele>
        <time>2019-01-19T15:00:58Z</time>
      </trkpt>
      <trkpt lat="42.803631" lon="1.402606">
        <ele>1572.5</ele>
        <time>2019-01-19T15:02:00Z</time>
      </trkpt>
      <trkpt lat="42.803705" lon="1.402690">
        <ele>1569.7</ele>
        <time>2019-01-19T15:02:12Z</time>
      </trkpt>
      <trkpt lat="42.803775" lon="1.402791">
        <ele>1567.2</ele>
        <time>2019-01-19T15:02:23Z</time>
      </trkpt>
      <trkpt lat="42.803825" lon="1.402899">
        <ele>1565.0</ele>
        <time>2019-01-19T15:02:35Z</time>
      </trkpt>
      <trkpt lat="42.803893" lon="1.403007">
        <ele>1563.9</ele>
        <time>2019-01-19T15:02:46Z</time>
      </trkpt>
      <trkpt lat="42.803965" lon="1.403113">
        <ele>1562.0</ele>
        <time>2019-01-19T15:02:57Z</time>
      </trkpt>
      <trkpt lat="42.804039" lon="1.403199">
        <ele>1559.7</ele>
        <time>2019-01-19T15:03:08Z</time>
      </trkpt>
      <trkpt lat="42.804111" lon="1.403280">
        <ele>1557.0</ele>
        <time>2019-01-19T15:03:20Z</time>
      </trkpt>
      <trkpt lat="42.804157" lon="1.403394">
        <ele>1554.8</ele>
        <time>2019-01-19T15:03:34Z</time>
      </trkpt>
      <trkpt lat="42.804217" lon="1.403524">
        <ele>1552.7</ele>
        <time>2019-01-19T15:03:48Z</time>
      </trkpt>
      <trkpt lat="42.804243" lon="1.403649">
        <ele>1550.2</ele>
        <time>2019-01-19T15:04:01Z</time>
      </trkpt>
      <trkpt lat="42.804292" lon="1.403754">
        <ele>1547.2</ele>
        <time>2019-01-19T15:04:36Z</time>
      </trkpt>
      <trkpt lat="42.804375" lon="1.403784">
        <ele>1542.5</ele>
        <time>2019-01-19T15:04:57Z</time>
      </trkpt>
      <trkpt lat="42.804447" lon="1.403843">
        <ele>1536.2</ele>
        <time>2019-01-19T15:05:13Z</time>
      </trkpt>
      <trkpt lat="42.804525" lon="1.403900">
        <ele>1531.1</ele>
        <time>2019-01-19T15:05:28Z</time>
      </trkpt>
      <trkpt lat="42.804607" lon="1.403943">
        <ele>1525.8</ele>
        <time>2019-01-19T15:05:42Z</time>
      </trkpt>
      <trkpt lat="42.804677" lon="1.404022">
        <ele>1520.4</ele>
        <time>2019-01-19T15:06:01Z</time>
      </trkpt>
      <trkpt lat="42.804758" lon="1.404104">
        <ele>1517.6</ele>
        <time>2019-01-19T15:06:15Z</time>
      </trkpt>
      <trkpt lat="42.804795" lon="1.404232">
        <ele>1514.1</ele>
        <time>2019-01-19T15:06:27Z</time>
      </trkpt>
      <trkpt lat="42.804796" lon="1.404369">
        <ele>1511.3</ele>
        <time>2019-01-19T15:06:39Z</time>
      </trkpt>
      <trkpt lat="42.804816" lon="1.404505">
        <ele>1507.8</ele>
        <time>2019-01-19T15:06:53Z</time>
      </trkpt>
      <trkpt lat="42.804830" lon="1.404637">
        <ele>1505.1</ele>
        <time>2019-01-19T15:07:07Z</time>
      </trkpt>
      <trkpt lat="42.804894" lon="1.404734">
        <ele>1499.6</ele>
        <time>2019-01-19T15:07:25Z</time>
      </trkpt>
      <trkpt lat="42.804975" lon="1.404725">
        <ele>1493.6</ele>
        <time>2019-01-19T15:07:58Z</time>
      </trkpt>
      <trkpt lat="42.805026" lon="1.404770">
        <ele>1493.4</ele>
        <time>2019-01-19T15:08:53Z</time>
      </trkpt>
      <trkpt lat="42.805094" lon="1.404765">
        <ele>1491.2</ele>
        <time>2019-01-19T15:09:09Z</time>
      </trkpt>
      <trkpt lat="42.805119" lon="1.404853">
        <ele>1488.4</ele>
        <time>2019-01-19T15:09:28Z</time>
      </trkpt>
      <trkpt lat="42.805148" lon="1.404985">
        <ele>1485.9</ele>
        <time>2019-01-19T15:09:44Z</time>
      </trkpt>
      <trkpt lat="42.805176" lon="1.405111">
        <ele>1483.0</ele>
        <time>2019-01-19T15:09:57Z</time>
      </trkpt>
      <trkpt lat="42.805203" lon="1.405239">
        <ele>1481.2</ele>
        <time>2019-01-19T15:10:10Z</time>
      </trkpt>
      <trkpt lat="42.805234" lon="1.405351">
        <ele>1480.3</ele>
        <time>2019-01-19T15:10:21Z</time>
      </trkpt>
      <trkpt lat="42.805255" lon="1.405468">
        <ele>1479.7</ele>
        <time>2019-01-19T15:10:34Z</time>
      </trkpt>
      <trkpt lat="42.805283" lon="1.405581">
        <ele>1481.4</ele>
        <time>2019-01-19T15:10:50Z</time>
      </trkpt>
      <trkpt lat="42.805239" lon="1.405710">
        <ele>1483.2</ele>
        <time>2019-01-19T15:11:05Z</time>
      </trkpt>
      <trkpt lat="42.805191" lon="1.405832">
        <ele>1485.2</ele>
        <time>2019-01-19T15:11:20Z</time>
      </trkpt>
      <trkpt lat="42.805177" lon="1.405959">
        <ele>1487.3</ele>
        <time>2019-01-19T15:11:34Z</time>
      </trkpt>
      <trkpt lat="42.805141" lon="1.406063">
        <ele>1489.3</ele>
        <time>2019-01-19T15:11:52Z</time>
      </trkpt>
      <trkpt lat="42.805093" lon="1.406138">
        <ele>1491.5</ele>
        <time>2019-01-19T15:12:25Z</time>
      </trkpt>
      <trkpt lat="42.805081" lon="1.406258">
        <ele>1492.7</ele>
        <time>2019-01-19T15:12:39Z</time>
      </trkpt>
      <trkpt lat="42.805062" lon="1.406381">
        <ele>1494.0</ele>
        <time>2019-01-19T15:12:53Z</time>
      </trkpt>
      <trkpt lat="42.805048" lon="1.406511">
        <ele>1494.9</ele>
        <time>2019-01-19T15:13:05Z</time>
      </trkpt>
      <trkpt lat="42.805025" lon="1.406630">
        <ele>1495.0</ele>
        <time>2019-01-19T15:13:16Z</time>
      </trkpt>
      <trkpt lat="42.805011" lon="1.406760">
        <ele>1495.2</ele>
        <time>2019-01-19T15:13:27Z</time>
      </trkpt>
      <trkpt lat="42.804998" lon="1.406894">
        <ele>1495.4</ele>
        <time>2019-01-19T15:13:39Z</time>
      </trkpt>
      <trkpt lat="42.804986" lon="1.407026">
        <ele>1495.8</ele>
        <time>2019-01-19T15:13:51Z</time>
      </trkpt>
      <trkpt lat="42.804960" lon="1.407155">
        <ele>1496.3</ele>
        <time>2019-01-19T15:14:04Z</time>
      </trkpt>
      <trkpt lat="42.804956" lon="1.407275">
        <ele>1496.8</ele>
        <time>2019-01-19T15:14:15Z</time>
      </trkpt>
      <trkpt lat="42.804945" lon="1.407413">
        <ele>1497.6</ele>
        <time>2019-01-19T15:14:27Z</time>
      </trkpt>
      <trkpt lat="42.804902" lon="1.407533">
        <ele>1499.2</ele>
        <time>2019-01-19T15:14:38Z</time>
      </trkpt>
      <trkpt lat="42.804853" lon="1.407649">
        <ele>1500.1</ele>
        <time>2019-01-19T15:14:52Z</time>
      </trkpt>
      <trkpt lat="42.804825" lon="1.407770">
        <ele>1501.7</ele>
        <time>2019-01-19T15:15:06Z</time>
      </trkpt>
      <trkpt lat="42.804791" lon="1.407886">
        <ele>1503.3</ele>
        <time>2019-01-19T15:15:20Z</time>
      </trkpt>
      <trkpt lat="42.804769" lon="1.408006">
        <ele>1504.9</ele>
        <time>2019-01-19T15:15:34Z</time>
      </trkpt>
      <trkpt lat="42.804752" lon="1.408141">
        <ele>1506.7</ele>
        <time>2019-01-19T15:15:48Z</time>
      </trkpt>
      <trkpt lat="42.804717" lon="1.408255">
        <ele>1508.5</ele>
        <time>2019-01-19T15:16:01Z</time>
      </trkpt>
      <trkpt lat="42.804679" lon="1.408374">
        <ele>1509.9</ele>
        <time>2019-01-19T15:16:14Z</time>
      </trkpt>
      <trkpt lat="42.804660" lon="1.408478">
        <ele>1510.9</ele>
        <time>2019-01-19T15:16:27Z</time>
      </trkpt>
      <trkpt lat="42.804643" lon="1.408603">
        <ele>1511.5</ele>
        <time>2019-01-19T15:16:40Z</time>
      </trkpt>
      <trkpt lat="42.804614" lon="1.408722">
        <ele>1512.6</ele>
        <time>2019-01-19T15:16:51Z</time>
      </trkpt>
      <trkpt lat="42.804600" lon="1.408853">
        <ele>1512.8</ele>
        <time>2019-01-19T15:17:02Z</time>
      </trkpt>
      <trkpt lat="42.804534" lon="1.408959">
        <ele>1513.7</ele>
        <time>2019-01-19T15:17:17Z</time>
      </trkpt>
      <trkpt lat="42.804454" lon="1.409042">
        <ele>1515.5</ele>
        <time>2019-01-19T15:17:32Z</time>
      </trkpt>
      <trkpt lat="42.804373" lon="1.409112">
        <ele>1517.5</ele>
        <time>2019-01-19T15:17:47Z</time>
      </trkpt>
      <trkpt lat="42.804297" lon="1.409189">
        <ele>1519.4</ele>
        <time>2019-01-19T15:18:00Z</time>
      </trkpt>
      <trkpt lat="42.804238" lon="1.409278">
        <ele>1520.7</ele>
        <time>2019-01-19T15:18:12Z</time>
      </trkpt>
      <trkpt lat="42.804193" lon="1.409378">
        <ele>1522.1</ele>
        <time>2019-01-19T15:18:25Z</time>
      </trkpt>
      <trkpt lat="42.804174" lon="1.409503">
        <ele>1523.4</ele>
        <time>2019-01-19T15:18:36Z</time>
      </trkpt>
      <trkpt lat="42.804142" lon="1.409619">
        <ele>1524.3</ele>
        <time>2019-01-19T15:18:47Z</time>
      </trkpt>
      <trkpt lat="42.804122" lon="1.409733">
        <ele>1524.2</ele>
        <time>2019-01-19T15:19:22Z</time>
      </trkpt>
      <trkpt lat="42.804100" lon="1.409857">
        <ele>1524.2</ele>
        <time>2019-01-19T15:19:33Z</time>
      </trkpt>
      <trkpt lat="42.804083" lon="1.409984">
        <ele>1524.0</ele>
        <time>2019-01-19T15:19:44Z</time>
      </trkpt>
      <trkpt lat="42.804078" lon="1.410103">
        <ele>1523.1</ele>
        <time>2019-01-19T15:19:58Z</time>
      </trkpt>
      <trkpt lat="42.804072" lon="1.410236">
        <ele>1522.7</ele>
        <time>2019-01-19T15:20:11Z</time>
      </trkpt>
      <trkpt lat="42.804055" lon="1.410363">
        <ele>1522.1</ele>
        <time>2019-01-19T15:20:22Z</time>
      </trkpt>
      <trkpt lat="42.804036" lon="1.410483">
        <ele>1521.5</ele>
        <time>2019-01-19T15:20:32Z</time>
      </trkpt>
      <trkpt lat="42.804027" lon="1.410612">
        <ele>1521.1</ele>
        <time>2019-01-19T15:20:42Z</time>
      </trkpt>
      <trkpt lat="42.804017" lon="1.410738">
        <ele>1520.0</ele>
        <time>2019-01-19T15:20:54Z</time>
      </trkpt>
      <trkpt lat="42.804021" lon="1.410860">
        <ele>1518.5</ele>
        <time>2019-01-19T15:21:05Z</time>
      </trkpt>
      <trkpt lat="42.804000" lon="1.410985">
        <ele>1516.8</ele>
        <time>2019-01-19T15:21:18Z</time>
      </trkpt>
      <trkpt lat="42.803969" lon="1.411112">
        <ele>1515.6</ele>
        <time>2019-01-19T15:21:30Z</time>
      </trkpt>
      <trkpt lat="42.803959" lon="1.411240">
        <ele>1515.2</ele>
        <time>2019-01-19T15:21:41Z</time>
      </trkpt>
      <trkpt lat="42.803938" lon="1.411355">
        <ele>1513.8</ele>
        <time>2019-01-19T15:21:51Z</time>
      </trkpt>
      <trkpt lat="42.803911" lon="1.411484">
        <ele>1512.0</ele>
        <time>2019-01-19T15:22:02Z</time>
      </trkpt>
      <trkpt lat="42.803895" lon="1.411607">
        <ele>1510.4</ele>
        <time>2019-01-19T15:22:12Z</time>
      </trkpt>
      <trkpt lat="42.803886" lon="1.411732">
        <ele>1507.8</ele>
        <time>2019-01-19T15:22:24Z</time>
      </trkpt>
      <trkpt lat="42.803886" lon="1.411849">
        <ele>1504.7</ele>
        <time>2019-01-19T15:22:36Z</time>
      </trkpt>
      <trkpt lat="42.803870" lon="1.411972">
        <ele>1502.3</ele>
        <time>2019-01-19T15:22:47Z</time>
      </trkpt>
      <trkpt lat="42.803835" lon="1.412088">
        <ele>1499.4</ele>
        <time>2019-01-19T15:22:59Z</time>
      </trkpt>
      <trkpt lat="42.803776" lon="1.412195">
        <ele>1496.8</ele>
        <time>2019-01-19T15:23:10Z</time>
      </trkpt>
      <trkpt lat="42.803779" lon="1.412319">
        <ele>1493.5</ele>
        <time>2019-01-19T15:23:22Z</time>
      </trkpt>
      <trkpt lat="42.803753" lon="1.412418">
        <ele>1489.5</ele>
        <time>2019-01-19T15:23:40Z</time>
      </trkpt>
      <trkpt lat="42.803747" lon="1.412537">
        <ele>1485.4</ele>
        <time>2019-01-19T15:23:58Z</time>
      </trkpt>
      <trkpt lat="42.803692" lon="1.412664">
        <ele>1483.9</ele>
        <time>2019-01-19T15:24:13Z</time>
      </trkpt>
      <trkpt lat="42.803709" lon="1.412798">
        <ele>1483.1</ele>
        <time>2019-01-19T15:24:24Z</time>
      </trkpt>
      <trkpt lat="42.803774" lon="1.412897">
        <ele>1482.2</ele>
        <time>2019-01-19T15:24:36Z</time>
      </trkpt>
      <trkpt lat="42.803859" lon="1.412975">
        <ele>1480.8</ele>
        <time>2019-01-19T15:25:17Z</time>
      </trkpt>
      <trkpt lat="42.803943" lon="1.413054">
        <ele>1480.5</ele>
        <time>2019-01-19T15:25:28Z</time>
      </trkpt>
      <trkpt lat="42.804013" lon="1.413146">
        <ele>1479.8</ele>
        <time>2019-01-19T15:25:39Z</time>
      </trkpt>
      <trkpt lat="42.804087" lon="1.413227">
        <ele>1478.8</ele>
        <time>2019-01-19T15:25:49Z</time>
      </trkpt>
      <trkpt lat="42.804151" lon="1.413313">
        <ele>1477.8</ele>
        <time>2019-01-19T15:25:59Z</time>
      </trkpt>
      <trkpt lat="42.804215" lon="1.413415">
        <ele>1477.0</ele>
        <time>2019-01-19T15:26:10Z</time>
      </trkpt>
      <trkpt lat="42.804277" lon="1.413523">
        <ele>1476.0</ele>
        <time>2019-01-19T15:26:21Z</time>
      </trkpt>
      <trkpt lat="42.804345" lon="1.413606">
        <ele>1475.4</ele>
        <time>2019-01-19T15:26:31Z</time>
      </trkpt>
      <trkpt lat="42.804419" lon="1.413693">
        <ele>1474.0</ele>
        <time>2019-01-19T15:26:42Z</time>
      </trkpt>
      <trkpt lat="42.804473" lon="1.413790">
        <ele>1472.8</ele>
        <time>2019-01-19T15:26:52Z</time>
      </trkpt>
      <trkpt lat="42.804519" lon="1.413899">
        <ele>1472.1</ele>
        <time>2019-01-19T15:27:02Z</time>
      </trkpt>
      <trkpt lat="42.804562" lon="1.414010">
        <ele>1470.8</ele>
        <time>2019-01-19T15:27:12Z</time>
      </trkpt>
      <trkpt lat="42.804593" lon="1.414127">
        <ele>1469.6</ele>
        <time>2019-01-19T15:27:22Z</time>
      </trkpt>
      <trkpt lat="42.804623" lon="1.414256">
        <ele>1468.5</ele>
        <time>2019-01-19T15:27:33Z</time>
      </trkpt>
      <trkpt lat="42.804665" lon="1.414381">
        <ele>1467.2</ele>
        <time>2019-01-19T15:27:44Z</time>
      </trkpt>
      <trkpt lat="42.804710" lon="1.414502">
        <ele>1466.2</ele>
        <time>2019-01-19T15:27:54Z</time>
      </trkpt>
      <trkpt lat="42.804766" lon="1.414603">
        <ele>1465.3</ele>
        <time>2019-01-19T15:28:05Z</time>
      </trkpt>
      <trkpt lat="42.804825" lon="1.414704">
        <ele>1464.3</ele>
        <time>2019-01-19T15:28:15Z</time>
      </trkpt>
      <trkpt lat="42.804892" lon="1.414791">
        <ele>1463.4</ele>
        <time>2019-01-19T15:28:25Z</time>
      </trkpt>
      <trkpt lat="42.804953" lon="1.414885">
        <ele>1462.2</ele>
        <time>2019-01-19T15:28:35Z</time>
      </trkpt>
      <trkpt lat="42.805010" lon="1.414989">
        <ele>1461.3</ele>
        <time>2019-01-19T15:28:45Z</time>
      </trkpt>
      <trkpt lat="42.805060" lon="1.415102">
        <ele>1460.1</ele>
        <time>2019-01-19T15:28:55Z</time>
      </trkpt>
      <trkpt lat="42.805085" lon="1.415227">
        <ele>1459.2</ele>
        <time>2019-01-19T15:29:05Z</time>
      </trkpt>
      <trkpt lat="42.805128" lon="1.415347">
        <ele>1458.1</ele>
        <time>2019-01-19T15:29:15Z</time>
      </trkpt>
      <trkpt lat="42.805185" lon="1.415462">
        <ele>1456.8</ele>
        <time>2019-01-19T15:29:25Z</time>
      </trkpt>
      <trkpt lat="42.805236" lon="1.415574">
        <ele>1456.2</ele>
        <time>2019-01-19T15:29:36Z</time>
      </trkpt>
      <trkpt lat="42.805283" lon="1.415686">
        <ele>1455.7</ele>
        <time>2019-01-19T15:29:46Z</time>
      </trkpt>
      <trkpt lat="42.805302" lon="1.415815">
        <ele>1453.8</ele>
        <time>2019-01-19T15:29:58Z</time>
      </trkpt>
      <trkpt lat="42.805275" lon="1.415938">
        <ele>1452.4</ele>
        <time>2019-01-19T15:30:08Z</time>
      </trkpt>
      <trkpt lat="42.805230" lon="1.416060">
        <ele>1450.8</ele>
        <time>2019-01-19T15:30:18Z</time>
      </trkpt>
      <trkpt lat="42.805217" lon="1.416183">
        <ele>1449.2</ele>
        <time>2019-01-19T15:30:28Z</time>
      </trkpt>
      <trkpt lat="42.805221" lon="1.416314">
        <ele>1447.6</ele>
        <time>2019-01-19T15:30:38Z</time>
      </trkpt>
      <trkpt lat="42.805227" lon="1.416442">
        <ele>1445.6</ele>
        <time>2019-01-19T15:30:49Z</time>
      </trkpt>
      <trkpt lat="42.805242" lon="1.416566">
        <ele>1443.7</ele>
        <time>2019-01-19T15:30:59Z</time>
      </trkpt>
      <trkpt lat="42.805249" lon="1.416687">
        <ele>1441.4</ele>
        <time>2019-01-19T15:31:10Z</time>
      </trkpt>
      <trkpt lat="42.805219" lon="1.416811">
        <ele>1438.2</ele>
        <time>2019-01-19T15:31:24Z</time>
      </trkpt>
      <trkpt lat="42.805163" lon="1.416920">
        <ele>1435.7</ele>
        <time>2019-01-19T15:31:35Z</time>
      </trkpt>
      <trkpt lat="42.805127" lon="1.417040">
        <ele>1433.8</ele>
        <time>2019-01-19T15:31:45Z</time>
      </trkpt>
      <trkpt lat="42.805092" lon="1.417151">
        <ele>1432.2</ele>
        <time>2019-01-19T15:31:55Z</time>
      </trkpt>
      <trkpt lat="42.805037" lon="1.417263">
        <ele>1431.1</ele>
        <time>2019-01-19T15:32:05Z</time>
      </trkpt>
      <trkpt lat="42.805038" lon="1.417403">
        <ele>1430.3</ele>
        <time>2019-01-19T15:32:16Z</time>
      </trkpt>
      <trkpt lat="42.805039" lon="1.417529">
        <ele>1429.2</ele>
        <time>2019-01-19T15:32:26Z</time>
      </trkpt>
      <trkpt lat="42.805043" lon="1.417667">
        <ele>1428.4</ele>
        <time>2019-01-19T15:32:37Z</time>
      </trkpt>
      <trkpt lat="42.805021" lon="1.417790">
        <ele>1427.2</ele>
        <time>2019-01-19T15:32:47Z</time>
      </trkpt>
      <trkpt lat="42.805005" lon="1.417920">
        <ele>1425.8</ele>
        <time>2019-01-19T15:32:58Z</time>
      </trkpt>
      <trkpt lat="42.805020" lon="1.418036">
        <ele>1424.8</ele>
        <time>2019-01-19T15:33:09Z</time>
      </trkpt>
      <trkpt lat="42.805003" lon="1.418165">
        <ele>1423.1</ele>
        <time>2019-01-19T15:33:19Z</time>
      </trkpt>
      <trkpt lat="42.804979" lon="1.418283">
        <ele>1421.8</ele>
        <time>2019-01-19T15:33:28Z</time>
      </trkpt>
      <trkpt lat="42.804951" lon="1.418401">
        <ele>1420.7</ele>
        <time>2019-01-19T15:33:38Z</time>
      </trkpt>
      <trkpt lat="42.804936" lon="1.418531">
        <ele>1419.7</ele>
        <time>2019-01-19T15:33:48Z</time>
      </trkpt>
      <trkpt lat="42.804948" lon="1.418658">
        <ele>1418.7</ele>
        <time>2019-01-19T15:33:59Z</time>
      </trkpt>
      <trkpt lat="42.804954" lon="1.418798">
        <ele>1418.4</ele>
        <time>2019-01-19T15:34:10Z</time>
      </trkpt>
      <trkpt lat="42.804986" lon="1.418925">
        <ele>1417.7</ele>
        <time>2019-01-19T15:34:22Z</time>
      </trkpt>
      <trkpt lat="42.805028" lon="1.419040">
        <ele>1416.7</ele>
        <time>2019-01-19T15:34:34Z</time>
      </trkpt>
      <trkpt lat="42.805040" lon="1.419168">
        <ele>1416.0</ele>
        <time>2019-01-19T15:34:45Z</time>
      </trkpt>
      <trkpt lat="42.805048" lon="1.419299">
        <ele>1415.0</ele>
        <time>2019-01-19T15:34:56Z</time>
      </trkpt>
      <trkpt lat="42.805058" lon="1.419437">
        <ele>1414.4</ele>
        <time>2019-01-19T15:35:06Z</time>
      </trkpt>
      <trkpt lat="42.805063" lon="1.419562">
        <ele>1413.9</ele>
        <time>2019-01-19T15:35:16Z</time>
      </trkpt>
      <trkpt lat="42.805068" lon="1.419693">
        <ele>1413.2</ele>
        <time>2019-01-19T15:35:25Z</time>
      </trkpt>
      <trkpt lat="42.805084" lon="1.419814">
        <ele>1412.7</ele>
        <time>2019-01-19T15:35:34Z</time>
      </trkpt>
      <trkpt lat="42.805085" lon="1.419934">
        <ele>1412.1</ele>
        <time>2019-01-19T15:35:43Z</time>
      </trkpt>
      <trkpt lat="42.805113" lon="1.420065">
        <ele>1411.4</ele>
        <time>2019-01-19T15:35:53Z</time>
      </trkpt>
      <trkpt lat="42.805134" lon="1.420189">
        <ele>1411.0</ele>
        <time>2019-01-19T15:36:02Z</time>
      </trkpt>
      <trkpt lat="42.805155" lon="1.420322">
        <ele>1410.9</ele>
        <time>2019-01-19T15:36:12Z</time>
      </trkpt>
      <trkpt lat="42.805312" lon="1.420457">
        <ele>1410.1</ele>
        <time>2019-01-19T15:36:53Z</time>
      </trkpt>
      <trkpt lat="42.805399" lon="1.420513">
        <ele>1409.5</ele>
        <time>2019-01-19T15:37:05Z</time>
      </trkpt>
      <trkpt lat="42.805486" lon="1.420546">
        <ele>1408.1</ele>
        <time>2019-01-19T15:37:16Z</time>
      </trkpt>
      <trkpt lat="42.805522" lon="1.420650">
        <ele>1405.7</ele>
        <time>2019-01-19T15:37:27Z</time>
      </trkpt>
      <trkpt lat="42.805527" lon="1.420777">
        <ele>1404.2</ele>
        <time>2019-01-19T15:37:38Z</time>
      </trkpt>
      <trkpt lat="42.805530" lon="1.420904">
        <ele>1403.2</ele>
        <time>2019-01-19T15:37:50Z</time>
      </trkpt>
      <trkpt lat="42.805523" lon="1.421037">
        <ele>1401.9</ele>
        <time>2019-01-19T15:38:02Z</time>
      </trkpt>
      <trkpt lat="42.805525" lon="1.421174">
        <ele>1400.6</ele>
        <time>2019-01-19T15:38:14Z</time>
      </trkpt>
      <trkpt lat="42.805566" lon="1.421277">
        <ele>1399.4</ele>
        <time>2019-01-19T15:38:25Z</time>
      </trkpt>
      <trkpt lat="42.805618" lon="1.421367">
        <ele>1397.7</ele>
        <time>2019-01-19T15:38:37Z</time>
      </trkpt>
      <trkpt lat="42.805600" lon="1.421540">
        <ele>1395.7</ele>
        <time>2019-01-19T15:39:06Z</time>
      </trkpt>
      <trkpt lat="42.805601" lon="1.421670">
        <ele>1395.2</ele>
        <time>2019-01-19T15:39:16Z</time>
      </trkpt>
      <trkpt lat="42.805590" lon="1.421809">
        <ele>1394.6</ele>
        <time>2019-01-19T15:39:26Z</time>
      </trkpt>
      <trkpt lat="42.805583" lon="1.421933">
        <ele>1393.2</ele>
        <time>2019-01-19T15:39:36Z</time>
      </trkpt>
      <trkpt lat="42.805583" lon="1.422076">
        <ele>1392.0</ele>
        <time>2019-01-19T15:39:47Z</time>
      </trkpt>
      <trkpt lat="42.805585" lon="1.422214">
        <ele>1391.0</ele>
        <time>2019-01-19T15:39:57Z</time>
      </trkpt>
      <trkpt lat="42.805595" lon="1.422338">
        <ele>1389.8</ele>
        <time>2019-01-19T15:40:07Z</time>
      </trkpt>
      <trkpt lat="42.805604" lon="1.422455">
        <ele>1388.5</ele>
        <time>2019-01-19T15:40:19Z</time>
      </trkpt>
      <trkpt lat="42.805618" lon="1.422581">
        <ele>1388.0</ele>
        <time>2019-01-19T15:40:30Z</time>
      </trkpt>
      <trkpt lat="42.805631" lon="1.422724">
        <ele>1386.2</ele>
        <time>2019-01-19T15:40:41Z</time>
      </trkpt>
      <trkpt lat="42.805636" lon="1.422854">
        <ele>1384.9</ele>
        <time>2019-01-19T15:40:51Z</time>
      </trkpt>
      <trkpt lat="42.805646" lon="1.422998">
        <ele>1384.0</ele>
        <time>2019-01-19T15:41:01Z</time>
      </trkpt>
      <trkpt lat="42.805649" lon="1.423127">
        <ele>1383.0</ele>
        <time>2019-01-19T15:41:10Z</time>
      </trkpt>
      <trkpt lat="42.805622" lon="1.423259">
        <ele>1382.3</ele>
        <time>2019-01-19T15:41:19Z</time>
      </trkpt>
      <trkpt lat="42.805592" lon="1.423380">
        <ele>1381.3</ele>
        <time>2019-01-19T15:41:27Z</time>
      </trkpt>
      <trkpt lat="42.805551" lon="1.423518">
        <ele>1380.4</ele>
        <time>2019-01-19T15:41:36Z</time>
      </trkpt>
    </trkseg>
  </trk>
</gpx>

